<?xml version="1.0" encoding="UTF-8" standalone="no" ?>
<gpx xmlns="http://www.topografix.com/GPX/1/1" xmlns:xsi="http://www.w3.org/2001/XMLSchema-instance" xsi:schemaLocation="http://www.topografix.com/GPX/1/1 http://www.topografix.com/GPX/1/1/gpx.xsd" version="1.1" creator="VisuGPX - https://www.visugpx.com">
  <metadata>
    <name>lyon toussieux</name>
    <desc><![CDATA[lyon toussieux par petites routes et pistes]]></desc>
  </metadata>
  <trk>
    <name><![CDATA[toussieux_6nov]]></name>
    <trkseg>
      <trkpt lat="45.75559" lon="4.86147">
        <ele>195.31900024414</ele>
        <time>2011-11-06T07:42:10Z</time>
      </trkpt>
      <trkpt lat="45.75647" lon="4.86116">
        <ele>194.58000183106</ele>
        <time>2011-11-06T07:42:28Z</time>
      </trkpt>
      <trkpt lat="45.75681" lon="4.86111">
        <ele>194.55400085449</ele>
        <time>2011-11-06T07:42:37Z</time>
      </trkpt>
      <trkpt lat="45.75714" lon="4.86137">
        <ele>194.27499389648</ele>
        <time>2011-11-06T07:42:47Z</time>
      </trkpt>
      <trkpt lat="45.75731" lon="4.86152">
        <ele>194.41999816894</ele>
        <time>2011-11-06T07:42:53Z</time>
      </trkpt>
      <trkpt lat="45.75774" lon="4.86165">
        <ele>195.43499755859</ele>
        <time>2011-11-06T07:43:04Z</time>
      </trkpt>
      <trkpt lat="45.75834" lon="4.86178">
        <ele>196.30900573731</ele>
        <time>2011-11-06T07:43:16Z</time>
      </trkpt>
      <trkpt lat="45.75868" lon="4.86191">
        <ele>196.66900634766</ele>
        <time>2011-11-06T07:43:24Z</time>
      </trkpt>
      <trkpt lat="45.75916" lon="4.86188">
        <ele>196.0299987793</ele>
        <time>2011-11-06T07:43:33Z</time>
      </trkpt>
      <trkpt lat="45.75991" lon="4.86197">
        <ele>195.72700500488</ele>
        <time>2011-11-06T07:43:48Z</time>
      </trkpt>
      <trkpt lat="45.76027" lon="4.86198">
        <ele>195.34700012207</ele>
        <time>2011-11-06T07:43:56Z</time>
      </trkpt>
      <trkpt lat="45.76082" lon="4.86195">
        <ele>194.96699523926</ele>
        <time>2011-11-06T07:44:05Z</time>
      </trkpt>
      <trkpt lat="45.76122" lon="4.86193">
        <ele>195.64100646973</ele>
        <time>2011-11-06T07:44:13Z</time>
      </trkpt>
      <trkpt lat="45.76112" lon="4.86174">
        <ele>195.80900573731</ele>
        <time>2011-11-06T07:44:20Z</time>
      </trkpt>
      <trkpt lat="45.7617" lon="4.86169">
        <ele>196.30200195312</ele>
        <time>2011-11-06T07:44:33Z</time>
      </trkpt>
      <trkpt lat="45.76211" lon="4.86186">
        <ele>196.66799926758</ele>
        <time>2011-11-06T07:44:39Z</time>
      </trkpt>
      <trkpt lat="45.76242" lon="4.86162">
        <ele>196.62300109863</ele>
        <time>2011-11-06T07:44:45Z</time>
      </trkpt>
      <trkpt lat="45.76284" lon="4.86142">
        <ele>196.68600463867</ele>
        <time>2011-11-06T07:44:54Z</time>
      </trkpt>
      <trkpt lat="45.76318" lon="4.86128">
        <ele>196.97099304199</ele>
        <time>2011-11-06T07:45:01Z</time>
      </trkpt>
      <trkpt lat="45.76356" lon="4.86136">
        <ele>197.1369934082</ele>
        <time>2011-11-06T07:45:12Z</time>
      </trkpt>
      <trkpt lat="45.76397" lon="4.8614">
        <ele>197.72200012207</ele>
        <time>2011-11-06T07:45:21Z</time>
      </trkpt>
      <trkpt lat="45.76446" lon="4.86187">
        <ele>198.24200439453</ele>
        <time>2011-11-06T07:45:27Z</time>
      </trkpt>
      <trkpt lat="45.76511" lon="4.86161">
        <ele>198.7380065918</ele>
        <time>2011-11-06T07:45:39Z</time>
      </trkpt>
      <trkpt lat="45.7654" lon="4.8617">
        <ele>198.11099243164</ele>
        <time>2011-11-06T07:45:47Z</time>
      </trkpt>
      <trkpt lat="45.76567" lon="4.86171">
        <ele>199.01300048828</ele>
        <time>2011-11-06T07:45:53Z</time>
      </trkpt>
      <trkpt lat="45.76617" lon="4.8618">
        <ele>199.55599975586</ele>
        <time>2011-11-06T07:46:04Z</time>
      </trkpt>
      <trkpt lat="45.76635" lon="4.86154">
        <ele>199.61799621582</ele>
        <time>2011-11-06T07:46:14Z</time>
      </trkpt>
      <trkpt lat="45.76642" lon="4.86145">
        <ele>199.24899291992</ele>
        <time>2011-11-06T07:46:20Z</time>
      </trkpt>
      <trkpt lat="45.76641" lon="4.86113">
        <ele>199.20799255371</ele>
        <time>2011-11-06T07:46:25Z</time>
      </trkpt>
      <trkpt lat="45.76631" lon="4.86065">
        <ele>199.1190032959</ele>
        <time>2011-11-06T07:46:32Z</time>
      </trkpt>
      <trkpt lat="45.76631" lon="4.8599">
        <ele>198.91900634766</ele>
        <time>2011-11-06T07:46:40Z</time>
      </trkpt>
      <trkpt lat="45.7663" lon="4.85936">
        <ele>199.85600280762</ele>
        <time>2011-11-06T07:46:46Z</time>
      </trkpt>
      <trkpt lat="45.76666" lon="4.85931">
        <ele>200.59700012207</ele>
        <time>2011-11-06T07:46:54Z</time>
      </trkpt>
      <trkpt lat="45.76768" lon="4.85925">
        <ele>201.47300720215</ele>
        <time>2011-11-06T07:47:11Z</time>
      </trkpt>
      <trkpt lat="45.76821" lon="4.85919">
        <ele>200.26899719238</ele>
        <time>2011-11-06T07:47:23Z</time>
      </trkpt>
      <trkpt lat="45.76823" lon="4.8591">
        <ele>199.09399414062</ele>
        <time>2011-11-06T07:47:35Z</time>
      </trkpt>
      <trkpt lat="45.76822" lon="4.85904">
        <ele>198.96699523926</ele>
        <time>2011-11-06T07:47:52Z</time>
      </trkpt>
      <trkpt lat="45.76856" lon="4.85868">
        <ele>199.54699707031</ele>
        <time>2011-11-06T07:48:02Z</time>
      </trkpt>
      <trkpt lat="45.76894" lon="4.85837">
        <ele>199.02000427246</ele>
        <time>2011-11-06T07:48:12Z</time>
      </trkpt>
      <trkpt lat="45.76913" lon="4.85801">
        <ele>199.43299865723</ele>
        <time>2011-11-06T07:48:19Z</time>
      </trkpt>
      <trkpt lat="45.76973" lon="4.85742">
        <ele>199.60200500488</ele>
        <time>2011-11-06T07:48:34Z</time>
      </trkpt>
      <trkpt lat="45.76993" lon="4.85716">
        <ele>199.26400756836</ele>
        <time>2011-11-06T07:48:44Z</time>
      </trkpt>
      <trkpt lat="45.77028" lon="4.85697">
        <ele>199.82800292969</ele>
        <time>2011-11-06T07:48:52Z</time>
      </trkpt>
      <trkpt lat="45.77061" lon="4.85686">
        <ele>200.03199768066</ele>
        <time>2011-11-06T07:48:59Z</time>
      </trkpt>
      <trkpt lat="45.77109" lon="4.85683">
        <ele>199.86399841309</ele>
        <time>2011-11-06T07:49:08Z</time>
      </trkpt>
      <trkpt lat="45.77142" lon="4.85679">
        <ele>199.80599975586</ele>
        <time>2011-11-06T07:49:13Z</time>
      </trkpt>
      <trkpt lat="45.77195" lon="4.85669">
        <ele>199.93800354004</ele>
        <time>2011-11-06T07:49:22Z</time>
      </trkpt>
      <trkpt lat="45.77233" lon="4.85662">
        <ele>199.70799255371</ele>
        <time>2011-11-06T07:49:28Z</time>
      </trkpt>
      <trkpt lat="45.77294" lon="4.85655">
        <ele>198.78500366211</ele>
        <time>2011-11-06T07:49:40Z</time>
      </trkpt>
      <trkpt lat="45.77322" lon="4.8565">
        <ele>198.08000183106</ele>
        <time>2011-11-06T07:49:49Z</time>
      </trkpt>
      <trkpt lat="45.77378" lon="4.85641">
        <ele>197.75700378418</ele>
        <time>2011-11-06T07:50:01Z</time>
      </trkpt>
      <trkpt lat="45.77401" lon="4.85674">
        <ele>197.01699829102</ele>
        <time>2011-11-06T07:50:08Z</time>
      </trkpt>
      <trkpt lat="45.77407" lon="4.85729">
        <ele>196.94900512695</ele>
        <time>2011-11-06T07:50:15Z</time>
      </trkpt>
      <trkpt lat="45.77435" lon="4.85783">
        <ele>196.625</ele>
        <time>2011-11-06T07:50:23Z</time>
      </trkpt>
      <trkpt lat="45.77519" lon="4.85819">
        <ele>195.98300170898</ele>
        <time>2011-11-06T07:50:38Z</time>
      </trkpt>
      <trkpt lat="45.77592" lon="4.85825">
        <ele>195.68699645996</ele>
        <time>2011-11-06T07:50:51Z</time>
      </trkpt>
      <trkpt lat="45.77644" lon="4.85823">
        <ele>195.79299926758</ele>
        <time>2011-11-06T07:51:00Z</time>
      </trkpt>
      <trkpt lat="45.77728" lon="4.85822">
        <ele>195.87800598144</ele>
        <time>2011-11-06T07:51:14Z</time>
      </trkpt>
      <trkpt lat="45.77799" lon="4.85835">
        <ele>196.80499267578</ele>
        <time>2011-11-06T07:51:26Z</time>
      </trkpt>
      <trkpt lat="45.77866" lon="4.85857">
        <ele>195.73699951172</ele>
        <time>2011-11-06T07:51:38Z</time>
      </trkpt>
      <trkpt lat="45.77953" lon="4.85871">
        <ele>195.22500610352</ele>
        <time>2011-11-06T07:51:52Z</time>
      </trkpt>
      <trkpt lat="45.78059" lon="4.85871">
        <ele>195.43600463867</ele>
        <time>2011-11-06T07:52:09Z</time>
      </trkpt>
      <trkpt lat="45.78107" lon="4.85862">
        <ele>195.03700256348</ele>
        <time>2011-11-06T07:52:17Z</time>
      </trkpt>
      <trkpt lat="45.78184" lon="4.85855">
        <ele>194.88000488281</ele>
        <time>2011-11-06T07:52:30Z</time>
      </trkpt>
      <trkpt lat="45.78212" lon="4.85849">
        <ele>194.66799926758</ele>
        <time>2011-11-06T07:52:35Z</time>
      </trkpt>
      <trkpt lat="45.78255" lon="4.85834">
        <ele>195.37100219727</ele>
        <time>2011-11-06T07:52:43Z</time>
      </trkpt>
      <trkpt lat="45.78286" lon="4.85816">
        <ele>195.39300537109</ele>
        <time>2011-11-06T07:52:49Z</time>
      </trkpt>
      <trkpt lat="45.78339" lon="4.85859">
        <ele>195.19700622559</ele>
        <time>2011-11-06T07:52:59Z</time>
      </trkpt>
      <trkpt lat="45.78416" lon="4.85898">
        <ele>196.2799987793</ele>
        <time>2011-11-06T07:53:16Z</time>
      </trkpt>
      <trkpt lat="45.78463" lon="4.85907">
        <ele>198.00799560547</ele>
        <time>2011-11-06T07:53:30Z</time>
      </trkpt>
      <trkpt lat="45.78474" lon="4.85961">
        <ele>198.52699279785</ele>
        <time>2011-11-06T07:53:41Z</time>
      </trkpt>
      <trkpt lat="45.78482" lon="4.85994">
        <ele>199.06300354004</ele>
        <time>2011-11-06T07:53:49Z</time>
      </trkpt>
      <trkpt lat="45.7854" lon="4.86004">
        <ele>201.83799743652</ele>
        <time>2011-11-06T07:54:06Z</time>
      </trkpt>
      <trkpt lat="45.78591" lon="4.86019">
        <ele>203.80400085449</ele>
        <time>2011-11-06T07:54:21Z</time>
      </trkpt>
      <trkpt lat="45.78668" lon="4.86027">
        <ele>204.82200622559</ele>
        <time>2011-11-06T07:54:42Z</time>
      </trkpt>
      <trkpt lat="45.78715" lon="4.86032">
        <ele>206.19999694824</ele>
        <time>2011-11-06T07:54:56Z</time>
      </trkpt>
      <trkpt lat="45.78769" lon="4.86038">
        <ele>207.05499267578</ele>
        <time>2011-11-06T07:55:12Z</time>
      </trkpt>
      <trkpt lat="45.78823" lon="4.86043">
        <ele>207.77400207519</ele>
        <time>2011-11-06T07:55:27Z</time>
      </trkpt>
      <trkpt lat="45.7884" lon="4.86035">
        <ele>208.42399597168</ele>
        <time>2011-11-06T07:55:33Z</time>
      </trkpt>
      <trkpt lat="45.78862" lon="4.86032">
        <ele>209.32800292969</ele>
        <time>2011-11-06T07:55:40Z</time>
      </trkpt>
      <trkpt lat="45.78894" lon="4.86049">
        <ele>210.14900207519</ele>
        <time>2011-11-06T07:55:51Z</time>
      </trkpt>
      <trkpt lat="45.78949" lon="4.86046">
        <ele>212.32099914551</ele>
        <time>2011-11-06T07:56:06Z</time>
      </trkpt>
      <trkpt lat="45.79008" lon="4.86035">
        <ele>212.91799926758</ele>
        <time>2011-11-06T07:56:19Z</time>
      </trkpt>
      <trkpt lat="45.79073" lon="4.86029">
        <ele>211.67199707031</ele>
        <time>2011-11-06T07:56:32Z</time>
      </trkpt>
      <trkpt lat="45.79109" lon="4.86019">
        <ele>209.2799987793</ele>
        <time>2011-11-06T07:56:39Z</time>
      </trkpt>
      <trkpt lat="45.79112" lon="4.8599">
        <ele>207.14900207519</ele>
        <time>2011-11-06T07:56:43Z</time>
      </trkpt>
      <trkpt lat="45.79098" lon="4.85943">
        <ele>204.69900512695</ele>
        <time>2011-11-06T07:56:50Z</time>
      </trkpt>
      <trkpt lat="45.79081" lon="4.85899">
        <ele>204.38200378418</ele>
        <time>2011-11-06T07:56:59Z</time>
      </trkpt>
      <trkpt lat="45.79059" lon="4.85897">
        <ele>204.0059967041</ele>
        <time>2011-11-06T07:57:05Z</time>
      </trkpt>
      <trkpt lat="45.7901" lon="4.85878">
        <ele>200.86700439453</ele>
        <time>2011-11-06T07:57:12Z</time>
      </trkpt>
      <trkpt lat="45.78971" lon="4.85887">
        <ele>197.40400695801</ele>
        <time>2011-11-06T07:57:18Z</time>
      </trkpt>
      <trkpt lat="45.78947" lon="4.85938">
        <ele>196.14300537109</ele>
        <time>2011-11-06T07:57:26Z</time>
      </trkpt>
      <trkpt lat="45.78926" lon="4.85935">
        <ele>195.69500732422</ele>
        <time>2011-11-06T07:57:32Z</time>
      </trkpt>
      <trkpt lat="45.78866" lon="4.85922">
        <ele>195.69799804688</ele>
        <time>2011-11-06T07:57:47Z</time>
      </trkpt>
      <trkpt lat="45.78825" lon="4.85894">
        <ele>198.21800231934</ele>
        <time>2011-11-06T07:57:59Z</time>
      </trkpt>
      <trkpt lat="45.78801" lon="4.85885">
        <ele>199.74299621582</ele>
        <time>2011-11-06T07:58:08Z</time>
      </trkpt>
      <trkpt lat="45.78778" lon="4.85824">
        <ele>198.48300170898</ele>
        <time>2011-11-06T07:58:17Z</time>
      </trkpt>
      <trkpt lat="45.78763" lon="4.85815">
        <ele>195.53799438477</ele>
        <time>2011-11-06T07:58:22Z</time>
      </trkpt>
      <trkpt lat="45.78762" lon="4.85856">
        <ele>192.40800476074</ele>
        <time>2011-11-06T07:58:28Z</time>
      </trkpt>
      <trkpt lat="45.78757" lon="4.85972">
        <ele>192.15899658203</ele>
        <time>2011-11-06T07:58:45Z</time>
      </trkpt>
      <trkpt lat="45.7875" lon="4.86034">
        <ele>192.25300598144</ele>
        <time>2011-11-06T07:58:54Z</time>
      </trkpt>
      <trkpt lat="45.78749" lon="4.86159">
        <ele>190.76600646973</ele>
        <time>2011-11-06T07:59:09Z</time>
      </trkpt>
      <trkpt lat="45.78758" lon="4.86299">
        <ele>191.36799621582</ele>
        <time>2011-11-06T07:59:27Z</time>
      </trkpt>
      <trkpt lat="45.78774" lon="4.86445">
        <ele>190.33299255371</ele>
        <time>2011-11-06T07:59:46Z</time>
      </trkpt>
      <trkpt lat="45.78799" lon="4.86556">
        <ele>191.92799377441</ele>
        <time>2011-11-06T08:00:01Z</time>
      </trkpt>
      <trkpt lat="45.78852" lon="4.8667">
        <ele>191.15600585938</ele>
        <time>2011-11-06T08:00:19Z</time>
      </trkpt>
      <trkpt lat="45.7891" lon="4.86779">
        <ele>190.67399597168</ele>
        <time>2011-11-06T08:00:36Z</time>
      </trkpt>
      <trkpt lat="45.78963" lon="4.86879">
        <ele>190.41200256348</ele>
        <time>2011-11-06T08:00:52Z</time>
      </trkpt>
      <trkpt lat="45.79005" lon="4.86965">
        <ele>190.40100097656</ele>
        <time>2011-11-06T08:01:05Z</time>
      </trkpt>
      <trkpt lat="45.79022" lon="4.87068">
        <ele>190.17199707031</ele>
        <time>2011-11-06T08:01:17Z</time>
      </trkpt>
      <trkpt lat="45.79062" lon="4.87175">
        <ele>189.82800292969</ele>
        <time>2011-11-06T08:01:31Z</time>
      </trkpt>
      <trkpt lat="45.79131" lon="4.87282">
        <ele>189.56599426269</ele>
        <time>2011-11-06T08:01:48Z</time>
      </trkpt>
      <trkpt lat="45.79201" lon="4.87369">
        <ele>190.11999511719</ele>
        <time>2011-11-06T08:02:04Z</time>
      </trkpt>
      <trkpt lat="45.79235" lon="4.87438">
        <ele>189.80299377441</ele>
        <time>2011-11-06T08:02:14Z</time>
      </trkpt>
      <trkpt lat="45.79284" lon="4.87502">
        <ele>191.88499450684</ele>
        <time>2011-11-06T08:02:28Z</time>
      </trkpt>
      <trkpt lat="45.7934" lon="4.87584">
        <ele>192.60099792481</ele>
        <time>2011-11-06T08:02:45Z</time>
      </trkpt>
      <trkpt lat="45.79393" lon="4.87624">
        <ele>192.80000305176</ele>
        <time>2011-11-06T08:02:57Z</time>
      </trkpt>
      <trkpt lat="45.79478" lon="4.87687">
        <ele>193.64199829102</ele>
        <time>2011-11-06T08:03:15Z</time>
      </trkpt>
      <trkpt lat="45.79528" lon="4.87716">
        <ele>193.03999328613</ele>
        <time>2011-11-06T08:03:25Z</time>
      </trkpt>
      <trkpt lat="45.7956" lon="4.87731">
        <ele>192.33599853516</ele>
        <time>2011-11-06T08:03:33Z</time>
      </trkpt>
      <trkpt lat="45.79601" lon="4.87741">
        <ele>192.46499633789</ele>
        <time>2011-11-06T08:03:42Z</time>
      </trkpt>
      <trkpt lat="45.79642" lon="4.87772">
        <ele>192.75399780273</ele>
        <time>2011-11-06T08:03:55Z</time>
      </trkpt>
      <trkpt lat="45.7966" lon="4.87807">
        <ele>191.18200683594</ele>
        <time>2011-11-06T08:04:04Z</time>
      </trkpt>
      <trkpt lat="45.79667" lon="4.87818">
        <ele>188.54899597168</ele>
        <time>2011-11-06T08:04:47Z</time>
      </trkpt>
      <trkpt lat="45.79709" lon="4.87871">
        <ele>191.6130065918</ele>
        <time>2011-11-06T08:05:00Z</time>
      </trkpt>
      <trkpt lat="45.79731" lon="4.87911">
        <ele>191.26899719238</ele>
        <time>2011-11-06T08:05:07Z</time>
      </trkpt>
      <trkpt lat="45.7979" lon="4.88">
        <ele>190.83500671387</ele>
        <time>2011-11-06T08:05:23Z</time>
      </trkpt>
      <trkpt lat="45.79837" lon="4.8807">
        <ele>191.66499328613</ele>
        <time>2011-11-06T08:05:35Z</time>
      </trkpt>
      <trkpt lat="45.79899" lon="4.88174">
        <ele>191.12100219727</ele>
        <time>2011-11-06T08:05:52Z</time>
      </trkpt>
      <trkpt lat="45.79953" lon="4.88263">
        <ele>190.80900573731</ele>
        <time>2011-11-06T08:06:10Z</time>
      </trkpt>
      <trkpt lat="45.8001" lon="4.88356">
        <ele>190.03900146484</ele>
        <time>2011-11-06T08:06:28Z</time>
      </trkpt>
      <trkpt lat="45.80076" lon="4.88465">
        <ele>189.5</ele>
        <time>2011-11-06T08:06:49Z</time>
      </trkpt>
      <trkpt lat="45.80132" lon="4.88553">
        <ele>190.4880065918</ele>
        <time>2011-11-06T08:07:06Z</time>
      </trkpt>
      <trkpt lat="45.80184" lon="4.88649">
        <ele>189.68200683594</ele>
        <time>2011-11-06T08:07:23Z</time>
      </trkpt>
      <trkpt lat="45.80226" lon="4.88742">
        <ele>189.29600524902</ele>
        <time>2011-11-06T08:07:39Z</time>
      </trkpt>
      <trkpt lat="45.80275" lon="4.88869">
        <ele>190.19799804688</ele>
        <time>2011-11-06T08:08:00Z</time>
      </trkpt>
      <trkpt lat="45.80308" lon="4.88989">
        <ele>190.45399475098</ele>
        <time>2011-11-06T08:08:18Z</time>
      </trkpt>
      <trkpt lat="45.80343" lon="4.89125">
        <ele>189.41600036621</ele>
        <time>2011-11-06T08:08:38Z</time>
      </trkpt>
      <trkpt lat="45.80372" lon="4.89228">
        <ele>189.55099487305</ele>
        <time>2011-11-06T08:08:55Z</time>
      </trkpt>
      <trkpt lat="45.80388" lon="4.89309">
        <ele>190.33700561523</ele>
        <time>2011-11-06T08:09:08Z</time>
      </trkpt>
      <trkpt lat="45.80415" lon="4.8943">
        <ele>190.20300292969</ele>
        <time>2011-11-06T08:09:26Z</time>
      </trkpt>
      <trkpt lat="45.8044" lon="4.89555">
        <ele>189.3809967041</ele>
        <time>2011-11-06T08:09:44Z</time>
      </trkpt>
      <trkpt lat="45.8046" lon="4.89674">
        <ele>190.12699890137</ele>
        <time>2011-11-06T08:10:01Z</time>
      </trkpt>
      <trkpt lat="45.80478" lon="4.89805">
        <ele>189.45599365234</ele>
        <time>2011-11-06T08:10:19Z</time>
      </trkpt>
      <trkpt lat="45.80495" lon="4.89943">
        <ele>190.59399414062</ele>
        <time>2011-11-06T08:10:38Z</time>
      </trkpt>
      <trkpt lat="45.80508" lon="4.901">
        <ele>189.32499694824</ele>
        <time>2011-11-06T08:10:59Z</time>
      </trkpt>
      <trkpt lat="45.80516" lon="4.90232">
        <ele>190.47599792481</ele>
        <time>2011-11-06T08:11:17Z</time>
      </trkpt>
      <trkpt lat="45.8052" lon="4.90366">
        <ele>189.88400268555</ele>
        <time>2011-11-06T08:11:35Z</time>
      </trkpt>
      <trkpt lat="45.80521" lon="4.90525">
        <ele>189.02900695801</ele>
        <time>2011-11-06T08:11:56Z</time>
      </trkpt>
      <trkpt lat="45.8052" lon="4.90665">
        <ele>190.02600097656</ele>
        <time>2011-11-06T08:12:15Z</time>
      </trkpt>
      <trkpt lat="45.80517" lon="4.90717">
        <ele>189.76699829102</ele>
        <time>2011-11-06T08:12:22Z</time>
      </trkpt>
      <trkpt lat="45.80513" lon="4.90797">
        <ele>189.71299743652</ele>
        <time>2011-11-06T08:12:33Z</time>
      </trkpt>
      <trkpt lat="45.80503" lon="4.90949">
        <ele>188.98100280762</ele>
        <time>2011-11-06T08:12:53Z</time>
      </trkpt>
      <trkpt lat="45.80505" lon="4.91098">
        <ele>189.9640045166</ele>
        <time>2011-11-06T08:13:13Z</time>
      </trkpt>
      <trkpt lat="45.80512" lon="4.91225">
        <ele>189.05000305176</ele>
        <time>2011-11-06T08:13:30Z</time>
      </trkpt>
      <trkpt lat="45.80526" lon="4.91332">
        <ele>188.80400085449</ele>
        <time>2011-11-06T08:13:44Z</time>
      </trkpt>
      <trkpt lat="45.80552" lon="4.91452">
        <ele>189.7619934082</ele>
        <time>2011-11-06T08:14:00Z</time>
      </trkpt>
      <trkpt lat="45.80591" lon="4.91594">
        <ele>188.81199645996</ele>
        <time>2011-11-06T08:14:20Z</time>
      </trkpt>
      <trkpt lat="45.8063" lon="4.91704">
        <ele>189.48199462891</ele>
        <time>2011-11-06T08:14:36Z</time>
      </trkpt>
      <trkpt lat="45.80677" lon="4.91822">
        <ele>190.10000610352</ele>
        <time>2011-11-06T08:14:54Z</time>
      </trkpt>
      <trkpt lat="45.8072" lon="4.91932">
        <ele>190.10400390625</ele>
        <time>2011-11-06T08:15:10Z</time>
      </trkpt>
      <trkpt lat="45.80761" lon="4.92051">
        <ele>189.31399536133</ele>
        <time>2011-11-06T08:15:27Z</time>
      </trkpt>
      <trkpt lat="45.80791" lon="4.92127">
        <ele>189.15199279785</ele>
        <time>2011-11-06T08:15:38Z</time>
      </trkpt>
      <trkpt lat="45.80826" lon="4.92215">
        <ele>189.99800109863</ele>
        <time>2011-11-06T08:15:50Z</time>
      </trkpt>
      <trkpt lat="45.8088" lon="4.92353">
        <ele>190.1549987793</ele>
        <time>2011-11-06T08:16:09Z</time>
      </trkpt>
      <trkpt lat="45.80931" lon="4.92483">
        <ele>189.36700439453</ele>
        <time>2011-11-06T08:16:27Z</time>
      </trkpt>
      <trkpt lat="45.80986" lon="4.92613">
        <ele>189.09899902344</ele>
        <time>2011-11-06T08:16:46Z</time>
      </trkpt>
      <trkpt lat="45.81021" lon="4.92685">
        <ele>190.13299560547</ele>
        <time>2011-11-06T08:16:57Z</time>
      </trkpt>
      <trkpt lat="45.81074" lon="4.92774">
        <ele>191.54200744629</ele>
        <time>2011-11-06T08:17:12Z</time>
      </trkpt>
      <trkpt lat="45.81132" lon="4.92866">
        <ele>189.63000488281</ele>
        <time>2011-11-06T08:17:28Z</time>
      </trkpt>
      <trkpt lat="45.81203" lon="4.92968">
        <ele>189.60600280762</ele>
        <time>2011-11-06T08:17:46Z</time>
      </trkpt>
      <trkpt lat="45.81245" lon="4.93037">
        <ele>189.375</ele>
        <time>2011-11-06T08:17:59Z</time>
      </trkpt>
      <trkpt lat="45.81272" lon="4.93088">
        <ele>189.81100463867</ele>
        <time>2011-11-06T08:18:09Z</time>
      </trkpt>
      <trkpt lat="45.81307" lon="4.93172">
        <ele>188.65800476074</ele>
        <time>2011-11-06T08:18:22Z</time>
      </trkpt>
      <trkpt lat="45.81347" lon="4.93256">
        <ele>189.63800048828</ele>
        <time>2011-11-06T08:18:36Z</time>
      </trkpt>
      <trkpt lat="45.81397" lon="4.93364">
        <ele>189.98599243164</ele>
        <time>2011-11-06T08:18:52Z</time>
      </trkpt>
      <trkpt lat="45.8143" lon="4.93437">
        <ele>189.59599304199</ele>
        <time>2011-11-06T08:19:03Z</time>
      </trkpt>
      <trkpt lat="45.81482" lon="4.93556">
        <ele>189.58500671387</ele>
        <time>2011-11-06T08:19:21Z</time>
      </trkpt>
      <trkpt lat="45.81501" lon="4.93599">
        <ele>189.77000427246</ele>
        <time>2011-11-06T08:19:27Z</time>
      </trkpt>
      <trkpt lat="45.81539" lon="4.93685">
        <ele>189.67399597168</ele>
        <time>2011-11-06T08:19:39Z</time>
      </trkpt>
      <trkpt lat="45.8158" lon="4.93775">
        <ele>189.67999267578</ele>
        <time>2011-11-06T08:19:52Z</time>
      </trkpt>
      <trkpt lat="45.81601" lon="4.93819">
        <ele>189.83700561523</ele>
        <time>2011-11-06T08:19:59Z</time>
      </trkpt>
      <trkpt lat="45.81634" lon="4.93892">
        <ele>189.72099304199</ele>
        <time>2011-11-06T08:20:10Z</time>
      </trkpt>
      <trkpt lat="45.81662" lon="4.93903">
        <ele>189.39999389648</ele>
        <time>2011-11-06T08:20:17Z</time>
      </trkpt>
      <trkpt lat="45.81711" lon="4.93858">
        <ele>189.55099487305</ele>
        <time>2011-11-06T08:20:31Z</time>
      </trkpt>
      <trkpt lat="45.81734" lon="4.93819">
        <ele>189.68699645996</ele>
        <time>2011-11-06T08:20:44Z</time>
      </trkpt>
      <trkpt lat="45.81711" lon="4.93772">
        <ele>189.25900268555</ele>
        <time>2011-11-06T08:20:52Z</time>
      </trkpt>
      <trkpt lat="45.81678" lon="4.93702">
        <ele>187.98399353027</ele>
        <time>2011-11-06T08:21:04Z</time>
      </trkpt>
      <trkpt lat="45.81657" lon="4.93666">
        <ele>187.21699523926</ele>
        <time>2011-11-06T08:21:42Z</time>
      </trkpt>
      <trkpt lat="45.8162" lon="4.93585">
        <ele>188.92199707031</ele>
        <time>2011-11-06T08:21:57Z</time>
      </trkpt>
      <trkpt lat="45.8162" lon="4.93542">
        <ele>189.14900207519</ele>
        <time>2011-11-06T08:22:03Z</time>
      </trkpt>
      <trkpt lat="45.81609" lon="4.93503">
        <ele>189.2619934082</ele>
        <time>2011-11-06T08:22:09Z</time>
      </trkpt>
      <trkpt lat="45.81526" lon="4.93404">
        <ele>188.5</ele>
        <time>2011-11-06T08:22:29Z</time>
      </trkpt>
      <trkpt lat="45.81497" lon="4.93338">
        <ele>188.97799682617</ele>
        <time>2011-11-06T08:22:41Z</time>
      </trkpt>
      <trkpt lat="45.81489" lon="4.93307">
        <ele>191.66900634766</ele>
        <time>2011-11-06T08:22:49Z</time>
      </trkpt>
      <trkpt lat="45.81458" lon="4.93272">
        <ele>194.03100585938</ele>
        <time>2011-11-06T08:23:00Z</time>
      </trkpt>
      <trkpt lat="45.81421" lon="4.93217">
        <ele>193.27600097656</ele>
        <time>2011-11-06T08:23:11Z</time>
      </trkpt>
      <trkpt lat="45.81399" lon="4.93174">
        <ele>192.09599304199</ele>
        <time>2011-11-06T08:23:18Z</time>
      </trkpt>
      <trkpt lat="45.81389" lon="4.93149">
        <ele>192.08399963379</ele>
        <time>2011-11-06T08:23:27Z</time>
      </trkpt>
      <trkpt lat="45.81393" lon="4.93145">
        <ele>194.58099365234</ele>
        <time>2011-11-06T08:23:36Z</time>
      </trkpt>
      <trkpt lat="45.81393" lon="4.93151">
        <ele>194.89799499512</ele>
        <time>2011-11-06T08:23:50Z</time>
      </trkpt>
      <trkpt lat="45.81378" lon="4.93149">
        <ele>192.96200561523</ele>
        <time>2011-11-06T08:23:59Z</time>
      </trkpt>
      <trkpt lat="45.8138" lon="4.93153">
        <ele>192.40699768066</ele>
        <time>2011-11-06T08:24:06Z</time>
      </trkpt>
      <trkpt lat="45.8139" lon="4.93147">
        <ele>193.13800048828</ele>
        <time>2011-11-06T08:24:15Z</time>
      </trkpt>
      <trkpt lat="45.81396" lon="4.93148">
        <ele>195.14799499512</ele>
        <time>2011-11-06T08:24:42Z</time>
      </trkpt>
      <trkpt lat="45.8139" lon="4.93161">
        <ele>193.22999572754</ele>
        <time>2011-11-06T08:24:50Z</time>
      </trkpt>
      <trkpt lat="45.8139" lon="4.9315">
        <ele>192.63900756836</ele>
        <time>2011-11-06T08:24:58Z</time>
      </trkpt>
      <trkpt lat="45.81392" lon="4.93152">
        <ele>194.47500610352</ele>
        <time>2011-11-06T08:25:09Z</time>
      </trkpt>
      <trkpt lat="45.81389" lon="4.93159">
        <ele>192.83000183106</ele>
        <time>2011-11-06T08:25:17Z</time>
      </trkpt>
      <trkpt lat="45.81395" lon="4.93144">
        <ele>194.4940032959</ele>
        <time>2011-11-06T08:25:27Z</time>
      </trkpt>
      <trkpt lat="45.814" lon="4.93126">
        <ele>198.71299743652</ele>
        <time>2011-11-06T08:25:38Z</time>
      </trkpt>
      <trkpt lat="45.81399" lon="4.93117">
        <ele>201.80700683594</ele>
        <time>2011-11-06T08:25:50Z</time>
      </trkpt>
      <trkpt lat="45.81401" lon="4.93116">
        <ele>202.38800048828</ele>
        <time>2011-11-06T08:26:03Z</time>
      </trkpt>
      <trkpt lat="45.81402" lon="4.93099">
        <ele>203.64700317383</ele>
        <time>2011-11-06T08:27:03Z</time>
      </trkpt>
      <trkpt lat="45.81399" lon="4.93059">
        <ele>204.22900390625</ele>
        <time>2011-11-06T08:27:16Z</time>
      </trkpt>
      <trkpt lat="45.81394" lon="4.93018">
        <ele>205.79600524902</ele>
        <time>2011-11-06T08:27:30Z</time>
      </trkpt>
      <trkpt lat="45.81391" lon="4.92976">
        <ele>207.32200622559</ele>
        <time>2011-11-06T08:27:45Z</time>
      </trkpt>
      <trkpt lat="45.81387" lon="4.92927">
        <ele>209.98100280762</ele>
        <time>2011-11-06T08:28:00Z</time>
      </trkpt>
      <trkpt lat="45.81388" lon="4.92866">
        <ele>211.74800109863</ele>
        <time>2011-11-06T08:28:17Z</time>
      </trkpt>
      <trkpt lat="45.81398" lon="4.9282">
        <ele>214.78199768066</ele>
        <time>2011-11-06T08:28:30Z</time>
      </trkpt>
      <trkpt lat="45.81416" lon="4.92761">
        <ele>218.94500732422</ele>
        <time>2011-11-06T08:28:48Z</time>
      </trkpt>
      <trkpt lat="45.81424" lon="4.92762">
        <ele>219.84599304199</ele>
        <time>2011-11-06T08:28:54Z</time>
      </trkpt>
      <trkpt lat="45.81415" lon="4.92798">
        <ele>221.23100280762</ele>
        <time>2011-11-06T08:29:03Z</time>
      </trkpt>
      <trkpt lat="45.8143" lon="4.92853">
        <ele>223.70899963379</ele>
        <time>2011-11-06T08:29:17Z</time>
      </trkpt>
      <trkpt lat="45.81459" lon="4.92906">
        <ele>227.38999938965</ele>
        <time>2011-11-06T08:29:33Z</time>
      </trkpt>
      <trkpt lat="45.81504" lon="4.92953">
        <ele>231.01800537109</ele>
        <time>2011-11-06T08:29:52Z</time>
      </trkpt>
      <trkpt lat="45.81542" lon="4.9299">
        <ele>234.85499572754</ele>
        <time>2011-11-06T08:30:09Z</time>
      </trkpt>
      <trkpt lat="45.81567" lon="4.93">
        <ele>236.46600341797</ele>
        <time>2011-11-06T08:30:18Z</time>
      </trkpt>
      <trkpt lat="45.81581" lon="4.92977">
        <ele>238.21499633789</ele>
        <time>2011-11-06T08:30:27Z</time>
      </trkpt>
      <trkpt lat="45.81565" lon="4.92955">
        <ele>239.64399719238</ele>
        <time>2011-11-06T08:30:36Z</time>
      </trkpt>
      <trkpt lat="45.81524" lon="4.92921">
        <ele>242.96800231934</ele>
        <time>2011-11-06T08:30:54Z</time>
      </trkpt>
      <trkpt lat="45.81508" lon="4.92867">
        <ele>246.38400268555</ele>
        <time>2011-11-06T08:31:10Z</time>
      </trkpt>
      <trkpt lat="45.81519" lon="4.92805">
        <ele>249.23599243164</ele>
        <time>2011-11-06T08:31:26Z</time>
      </trkpt>
      <trkpt lat="45.81527" lon="4.92757">
        <ele>250.93099975586</ele>
        <time>2011-11-06T08:31:39Z</time>
      </trkpt>
      <trkpt lat="45.81524" lon="4.92707">
        <ele>253.61099243164</ele>
        <time>2011-11-06T08:31:53Z</time>
      </trkpt>
      <trkpt lat="45.81542" lon="4.92668">
        <ele>256.74499511719</ele>
        <time>2011-11-06T08:32:06Z</time>
      </trkpt>
      <trkpt lat="45.8157" lon="4.92658">
        <ele>259.76098632812</ele>
        <time>2011-11-06T08:32:18Z</time>
      </trkpt>
      <trkpt lat="45.81574" lon="4.92668">
        <ele>260.83898925781</ele>
        <time>2011-11-06T08:32:24Z</time>
      </trkpt>
      <trkpt lat="45.8155" lon="4.92678">
        <ele>263.20901489258</ele>
        <time>2011-11-06T08:32:32Z</time>
      </trkpt>
      <trkpt lat="45.81541" lon="4.92715">
        <ele>265.84899902344</ele>
        <time>2011-11-06T08:32:43Z</time>
      </trkpt>
      <trkpt lat="45.81555" lon="4.92755">
        <ele>267.95199584961</ele>
        <time>2011-11-06T08:32:55Z</time>
      </trkpt>
      <trkpt lat="45.81564" lon="4.92803">
        <ele>270.40100097656</ele>
        <time>2011-11-06T08:33:09Z</time>
      </trkpt>
      <trkpt lat="45.81568" lon="4.92859">
        <ele>273.23599243164</ele>
        <time>2011-11-06T08:33:24Z</time>
      </trkpt>
      <trkpt lat="45.81599" lon="4.92876">
        <ele>276.39498901367</ele>
        <time>2011-11-06T08:33:37Z</time>
      </trkpt>
      <trkpt lat="45.81647" lon="4.92853">
        <ele>279.9049987793</ele>
        <time>2011-11-06T08:33:55Z</time>
      </trkpt>
      <trkpt lat="45.81691" lon="4.92822">
        <ele>283.18899536133</ele>
        <time>2011-11-06T08:34:13Z</time>
      </trkpt>
      <trkpt lat="45.81702" lon="4.9279">
        <ele>286.42199707031</ele>
        <time>2011-11-06T08:34:23Z</time>
      </trkpt>
      <trkpt lat="45.81754" lon="4.92747">
        <ele>289.78601074219</ele>
        <time>2011-11-06T08:34:43Z</time>
      </trkpt>
      <trkpt lat="45.81793" lon="4.92728">
        <ele>293.32598876953</ele>
        <time>2011-11-06T08:34:59Z</time>
      </trkpt>
      <trkpt lat="45.81842" lon="4.92708">
        <ele>296.47299194336</ele>
        <time>2011-11-06T08:35:17Z</time>
      </trkpt>
      <trkpt lat="45.81887" lon="4.92684">
        <ele>297.96499633789</ele>
        <time>2011-11-06T08:35:32Z</time>
      </trkpt>
      <trkpt lat="45.81941" lon="4.92653">
        <ele>299.72799682617</ele>
        <time>2011-11-06T08:35:49Z</time>
      </trkpt>
      <trkpt lat="45.81977" lon="4.9266">
        <ele>300.87399291992</ele>
        <time>2011-11-06T08:36:02Z</time>
      </trkpt>
      <trkpt lat="45.82005" lon="4.92732">
        <ele>302.56600952148</ele>
        <time>2011-11-06T08:36:18Z</time>
      </trkpt>
      <trkpt lat="45.82048" lon="4.92745">
        <ele>305.92098999023</ele>
        <time>2011-11-06T08:36:31Z</time>
      </trkpt>
      <trkpt lat="45.82091" lon="4.92747">
        <ele>307.66598510742</ele>
        <time>2011-11-06T08:36:46Z</time>
      </trkpt>
      <trkpt lat="45.82129" lon="4.92759">
        <ele>310.71600341797</ele>
        <time>2011-11-06T08:37:00Z</time>
      </trkpt>
      <trkpt lat="45.82145" lon="4.92754">
        <ele>312.79400634766</ele>
        <time>2011-11-06T08:37:08Z</time>
      </trkpt>
      <trkpt lat="45.82183" lon="4.92686">
        <ele>314.64099121094</ele>
        <time>2011-11-06T08:37:25Z</time>
      </trkpt>
      <trkpt lat="45.82235" lon="4.92612">
        <ele>314.98498535156</ele>
        <time>2011-11-06T08:37:41Z</time>
      </trkpt>
      <trkpt lat="45.82315" lon="4.92533">
        <ele>317.13800048828</ele>
        <time>2011-11-06T08:38:03Z</time>
      </trkpt>
      <trkpt lat="45.82382" lon="4.92469">
        <ele>318.28601074219</ele>
        <time>2011-11-06T08:38:22Z</time>
      </trkpt>
      <trkpt lat="45.82422" lon="4.9245">
        <ele>319.53100585938</ele>
        <time>2011-11-06T08:38:35Z</time>
      </trkpt>
      <trkpt lat="45.82478" lon="4.92413">
        <ele>322.01098632812</ele>
        <time>2011-11-06T08:38:52Z</time>
      </trkpt>
      <trkpt lat="45.82536" lon="4.92372">
        <ele>323.21899414062</ele>
        <time>2011-11-06T08:39:10Z</time>
      </trkpt>
      <trkpt lat="45.82584" lon="4.92348">
        <ele>323.94500732422</ele>
        <time>2011-11-06T08:39:24Z</time>
      </trkpt>
      <trkpt lat="45.82632" lon="4.92343">
        <ele>324.83200073242</ele>
        <time>2011-11-06T08:39:36Z</time>
      </trkpt>
      <trkpt lat="45.82694" lon="4.92335">
        <ele>326.76098632812</ele>
        <time>2011-11-06T08:39:53Z</time>
      </trkpt>
      <trkpt lat="45.82756" lon="4.92328">
        <ele>326.98901367188</ele>
        <time>2011-11-06T08:40:09Z</time>
      </trkpt>
      <trkpt lat="45.82789" lon="4.92347">
        <ele>327.07901000977</ele>
        <time>2011-11-06T08:40:17Z</time>
      </trkpt>
      <trkpt lat="45.82861" lon="4.9239">
        <ele>327.61099243164</ele>
        <time>2011-11-06T08:40:32Z</time>
      </trkpt>
      <trkpt lat="45.82962" lon="4.92392">
        <ele>325.33801269531</ele>
        <time>2011-11-06T08:40:51Z</time>
      </trkpt>
      <trkpt lat="45.83042" lon="4.92382">
        <ele>324.89700317383</ele>
        <time>2011-11-06T08:41:07Z</time>
      </trkpt>
      <trkpt lat="45.83127" lon="4.9237">
        <ele>322.31900024414</ele>
        <time>2011-11-06T08:41:23Z</time>
      </trkpt>
      <trkpt lat="45.8315" lon="4.92334">
        <ele>319.93499755859</ele>
        <time>2011-11-06T08:41:40Z</time>
      </trkpt>
      <trkpt lat="45.83124" lon="4.92278">
        <ele>320.41101074219</ele>
        <time>2011-11-06T08:41:55Z</time>
      </trkpt>
      <trkpt lat="45.83086" lon="4.92205">
        <ele>320.29000854492</ele>
        <time>2011-11-06T08:42:13Z</time>
      </trkpt>
      <trkpt lat="45.83046" lon="4.92129">
        <ele>320.28298950195</ele>
        <time>2011-11-06T08:42:31Z</time>
      </trkpt>
      <trkpt lat="45.83007" lon="4.92041">
        <ele>320.28399658203</ele>
        <time>2011-11-06T08:42:49Z</time>
      </trkpt>
      <trkpt lat="45.82971" lon="4.91962">
        <ele>320.3210144043</ele>
        <time>2011-11-06T08:43:06Z</time>
      </trkpt>
      <trkpt lat="45.82948" lon="4.91902">
        <ele>319.56500244141</ele>
        <time>2011-11-06T08:43:20Z</time>
      </trkpt>
      <trkpt lat="45.82945" lon="4.91878">
        <ele>319.94000244141</ele>
        <time>2011-11-06T08:43:29Z</time>
      </trkpt>
      <trkpt lat="45.82975" lon="4.9188">
        <ele>320.17401123047</ele>
        <time>2011-11-06T08:43:37Z</time>
      </trkpt>
      <trkpt lat="45.83026" lon="4.91886">
        <ele>320.0299987793</ele>
        <time>2011-11-06T08:43:49Z</time>
      </trkpt>
      <trkpt lat="45.83126" lon="4.91883">
        <ele>318.62701416016</ele>
        <time>2011-11-06T08:44:11Z</time>
      </trkpt>
      <trkpt lat="45.83177" lon="4.91871">
        <ele>318.06900024414</ele>
        <time>2011-11-06T08:44:23Z</time>
      </trkpt>
      <trkpt lat="45.83193" lon="4.91866">
        <ele>318.30599975586</ele>
        <time>2011-11-06T08:44:27Z</time>
      </trkpt>
      <trkpt lat="45.83252" lon="4.91847">
        <ele>318.40301513672</ele>
        <time>2011-11-06T08:44:41Z</time>
      </trkpt>
      <trkpt lat="45.83317" lon="4.91824">
        <ele>317.93399047852</ele>
        <time>2011-11-06T08:44:56Z</time>
      </trkpt>
      <trkpt lat="45.83377" lon="4.91806">
        <ele>317.50900268555</ele>
        <time>2011-11-06T08:45:10Z</time>
      </trkpt>
      <trkpt lat="45.83451" lon="4.91795">
        <ele>316.07598876953</ele>
        <time>2011-11-06T08:45:25Z</time>
      </trkpt>
      <trkpt lat="45.83504" lon="4.9179">
        <ele>315.61700439453</ele>
        <time>2011-11-06T08:45:38Z</time>
      </trkpt>
      <trkpt lat="45.83529" lon="4.91771">
        <ele>317.19100952148</ele>
        <time>2011-11-06T08:45:48Z</time>
      </trkpt>
      <trkpt lat="45.83525" lon="4.91691">
        <ele>318.06500244141</ele>
        <time>2011-11-06T08:46:03Z</time>
      </trkpt>
      <trkpt lat="45.83521" lon="4.91585">
        <ele>316.96798706055</ele>
        <time>2011-11-06T08:46:17Z</time>
      </trkpt>
      <trkpt lat="45.83524" lon="4.91458">
        <ele>314.11499023438</ele>
        <time>2011-11-06T08:46:30Z</time>
      </trkpt>
      <trkpt lat="45.83528" lon="4.91385">
        <ele>316.94500732422</ele>
        <time>2011-11-06T08:46:44Z</time>
      </trkpt>
      <trkpt lat="45.8353" lon="4.91321">
        <ele>319.97299194336</ele>
        <time>2011-11-06T08:46:59Z</time>
      </trkpt>
      <trkpt lat="45.83511" lon="4.91286">
        <ele>321.98699951172</ele>
        <time>2011-11-06T08:47:12Z</time>
      </trkpt>
      <trkpt lat="45.83491" lon="4.91262">
        <ele>322.47601318359</ele>
        <time>2011-11-06T08:47:18Z</time>
      </trkpt>
      <trkpt lat="45.83444" lon="4.91202">
        <ele>323.25500488281</ele>
        <time>2011-11-06T08:47:32Z</time>
      </trkpt>
      <trkpt lat="45.83449" lon="4.91109">
        <ele>324.7380065918</ele>
        <time>2011-11-06T08:47:46Z</time>
      </trkpt>
      <trkpt lat="45.83483" lon="4.91039">
        <ele>325.71499633789</ele>
        <time>2011-11-06T08:48:00Z</time>
      </trkpt>
      <trkpt lat="45.83515" lon="4.90969">
        <ele>328.31698608398</ele>
        <time>2011-11-06T08:48:18Z</time>
      </trkpt>
      <trkpt lat="45.83536" lon="4.90952">
        <ele>331.21701049805</ele>
        <time>2011-11-06T08:48:29Z</time>
      </trkpt>
      <trkpt lat="45.83594" lon="4.90962">
        <ele>333.72601318359</ele>
        <time>2011-11-06T08:48:46Z</time>
      </trkpt>
      <trkpt lat="45.83646" lon="4.90962">
        <ele>334.27899169922</ele>
        <time>2011-11-06T08:48:59Z</time>
      </trkpt>
      <trkpt lat="45.83717" lon="4.90964">
        <ele>333.80099487305</ele>
        <time>2011-11-06T08:49:12Z</time>
      </trkpt>
      <trkpt lat="45.83768" lon="4.9098">
        <ele>332.81298828125</ele>
        <time>2011-11-06T08:49:20Z</time>
      </trkpt>
      <trkpt lat="45.83811" lon="4.91017">
        <ele>331.8869934082</ele>
        <time>2011-11-06T08:49:28Z</time>
      </trkpt>
      <trkpt lat="45.83881" lon="4.91075">
        <ele>330.30499267578</ele>
        <time>2011-11-06T08:49:42Z</time>
      </trkpt>
      <trkpt lat="45.83924" lon="4.91111">
        <ele>328.26000976562</ele>
        <time>2011-11-06T08:49:52Z</time>
      </trkpt>
      <trkpt lat="45.83967" lon="4.91171">
        <ele>325</ele>
        <time>2011-11-06T08:50:02Z</time>
      </trkpt>
      <trkpt lat="45.8401" lon="4.91242">
        <ele>322.1369934082</ele>
        <time>2011-11-06T08:50:12Z</time>
      </trkpt>
      <trkpt lat="45.8401" lon="4.91235">
        <ele>319.62298583984</ele>
        <time>2011-11-06T08:50:18Z</time>
      </trkpt>
      <trkpt lat="45.84005" lon="4.91203">
        <ele>320.94299316406</ele>
        <time>2011-11-06T08:50:28Z</time>
      </trkpt>
      <trkpt lat="45.8402" lon="4.91135">
        <ele>322.58999633789</ele>
        <time>2011-11-06T08:50:40Z</time>
      </trkpt>
      <trkpt lat="45.84047" lon="4.91046">
        <ele>323.47500610352</ele>
        <time>2011-11-06T08:50:56Z</time>
      </trkpt>
      <trkpt lat="45.84068" lon="4.90971">
        <ele>322.55801391602</ele>
        <time>2011-11-06T08:51:12Z</time>
      </trkpt>
      <trkpt lat="45.84087" lon="4.90934">
        <ele>323.6960144043</ele>
        <time>2011-11-06T08:51:24Z</time>
      </trkpt>
      <trkpt lat="45.84111" lon="4.90887">
        <ele>324.57901000977</ele>
        <time>2011-11-06T08:51:40Z</time>
      </trkpt>
      <trkpt lat="45.84135" lon="4.9085">
        <ele>327.32998657227</ele>
        <time>2011-11-06T08:51:55Z</time>
      </trkpt>
      <trkpt lat="45.84171" lon="4.9081">
        <ele>327.77600097656</ele>
        <time>2011-11-06T08:52:10Z</time>
      </trkpt>
      <trkpt lat="45.84217" lon="4.90807">
        <ele>324.73498535156</ele>
        <time>2011-11-06T08:52:20Z</time>
      </trkpt>
      <trkpt lat="45.84312" lon="4.90802">
        <ele>316.33700561523</ele>
        <time>2011-11-06T08:52:36Z</time>
      </trkpt>
      <trkpt lat="45.84377" lon="4.90799">
        <ele>309.38000488281</ele>
        <time>2011-11-06T08:52:47Z</time>
      </trkpt>
      <trkpt lat="45.84389" lon="4.90751">
        <ele>308.01501464844</ele>
        <time>2011-11-06T08:52:57Z</time>
      </trkpt>
      <trkpt lat="45.84404" lon="4.90638">
        <ele>307.8210144043</ele>
        <time>2011-11-06T08:53:15Z</time>
      </trkpt>
      <trkpt lat="45.8442" lon="4.90536">
        <ele>306.51699829102</ele>
        <time>2011-11-06T08:53:29Z</time>
      </trkpt>
      <trkpt lat="45.84432" lon="4.90453">
        <ele>304.66198730469</ele>
        <time>2011-11-06T08:53:42Z</time>
      </trkpt>
      <trkpt lat="45.84437" lon="4.90364">
        <ele>303.75601196289</ele>
        <time>2011-11-06T08:53:57Z</time>
      </trkpt>
      <trkpt lat="45.84435" lon="4.90239">
        <ele>302.81298828125</ele>
        <time>2011-11-06T08:54:14Z</time>
      </trkpt>
      <trkpt lat="45.8446" lon="4.90213">
        <ele>302.6369934082</ele>
        <time>2011-11-06T08:54:21Z</time>
      </trkpt>
      <trkpt lat="45.84583" lon="4.90217">
        <ele>300.7619934082</ele>
        <time>2011-11-06T08:54:44Z</time>
      </trkpt>
      <trkpt lat="45.84608" lon="4.90218">
        <ele>300.33499145508</ele>
        <time>2011-11-06T08:54:49Z</time>
      </trkpt>
      <trkpt lat="45.84662" lon="4.90218">
        <ele>300.09899902344</ele>
        <time>2011-11-06T08:55:00Z</time>
      </trkpt>
      <trkpt lat="45.84726" lon="4.90219">
        <ele>299.15600585938</ele>
        <time>2011-11-06T08:55:13Z</time>
      </trkpt>
      <trkpt lat="45.84806" lon="4.90218">
        <ele>298.46200561523</ele>
        <time>2011-11-06T08:55:29Z</time>
      </trkpt>
      <trkpt lat="45.84848" lon="4.90218">
        <ele>297.99499511719</ele>
        <time>2011-11-06T08:55:37Z</time>
      </trkpt>
      <trkpt lat="45.8491" lon="4.90218">
        <ele>297.07000732422</ele>
        <time>2011-11-06T08:55:49Z</time>
      </trkpt>
      <trkpt lat="45.84976" lon="4.90216">
        <ele>297.10699462891</ele>
        <time>2011-11-06T08:56:02Z</time>
      </trkpt>
      <trkpt lat="45.85004" lon="4.90216">
        <ele>296.60400390625</ele>
        <time>2011-11-06T08:56:11Z</time>
      </trkpt>
      <trkpt lat="45.85004" lon="4.90215">
        <ele>296.78500366211</ele>
        <time>2011-11-06T08:56:37Z</time>
      </trkpt>
      <trkpt lat="45.84993" lon="4.90172">
        <ele>297.58801269531</ele>
        <time>2011-11-06T08:56:50Z</time>
      </trkpt>
      <trkpt lat="45.84979" lon="4.90143">
        <ele>297.63101196289</ele>
        <time>2011-11-06T08:56:56Z</time>
      </trkpt>
      <trkpt lat="45.84944" lon="4.90063">
        <ele>298.72601318359</ele>
        <time>2011-11-06T08:57:10Z</time>
      </trkpt>
      <trkpt lat="45.84895" lon="4.89952">
        <ele>299.4460144043</ele>
        <time>2011-11-06T08:57:28Z</time>
      </trkpt>
      <trkpt lat="45.8484" lon="4.8983">
        <ele>300.67498779297</ele>
        <time>2011-11-06T08:57:48Z</time>
      </trkpt>
      <trkpt lat="45.84783" lon="4.89704">
        <ele>301.89300537109</ele>
        <time>2011-11-06T08:58:09Z</time>
      </trkpt>
      <trkpt lat="45.8473" lon="4.89607">
        <ele>304.51800537109</ele>
        <time>2011-11-06T08:58:29Z</time>
      </trkpt>
      <trkpt lat="45.84658" lon="4.89544">
        <ele>306.86199951172</ele>
        <time>2011-11-06T08:58:48Z</time>
      </trkpt>
      <trkpt lat="45.84587" lon="4.89466">
        <ele>308.03298950195</ele>
        <time>2011-11-06T08:59:06Z</time>
      </trkpt>
      <trkpt lat="45.84513" lon="4.89417">
        <ele>310.0950012207</ele>
        <time>2011-11-06T08:59:24Z</time>
      </trkpt>
      <trkpt lat="45.84442" lon="4.89359">
        <ele>311.32800292969</ele>
        <time>2011-11-06T08:59:40Z</time>
      </trkpt>
      <trkpt lat="45.84364" lon="4.89275">
        <ele>308.09399414062</ele>
        <time>2011-11-06T08:59:54Z</time>
      </trkpt>
      <trkpt lat="45.84272" lon="4.89171">
        <ele>303.73699951172</ele>
        <time>2011-11-06T09:00:09Z</time>
      </trkpt>
      <trkpt lat="45.84226" lon="4.89138">
        <ele>301.93600463867</ele>
        <time>2011-11-06T09:00:16Z</time>
      </trkpt>
      <trkpt lat="45.84185" lon="4.89119">
        <ele>302.77398681641</ele>
        <time>2011-11-06T09:00:26Z</time>
      </trkpt>
      <trkpt lat="45.84143" lon="4.89066">
        <ele>307.71899414062</ele>
        <time>2011-11-06T09:00:42Z</time>
      </trkpt>
      <trkpt lat="45.84109" lon="4.89005">
        <ele>309.61099243164</ele>
        <time>2011-11-06T09:00:57Z</time>
      </trkpt>
      <trkpt lat="45.84064" lon="4.88923">
        <ele>308.49798583984</ele>
        <time>2011-11-06T09:01:10Z</time>
      </trkpt>
      <trkpt lat="45.84053" lon="4.88902">
        <ele>307.32800292969</ele>
        <time>2011-11-06T09:01:14Z</time>
      </trkpt>
      <trkpt lat="45.84062" lon="4.88896">
        <ele>303.38400268555</ele>
        <time>2011-11-06T09:01:20Z</time>
      </trkpt>
      <trkpt lat="45.84092" lon="4.88935">
        <ele>301.10400390625</ele>
        <time>2011-11-06T09:01:28Z</time>
      </trkpt>
      <trkpt lat="45.84129" lon="4.88975">
        <ele>299.4280090332</ele>
        <time>2011-11-06T09:01:37Z</time>
      </trkpt>
      <trkpt lat="45.84191" lon="4.8897">
        <ele>296.1960144043</ele>
        <time>2011-11-06T09:01:50Z</time>
      </trkpt>
      <trkpt lat="45.84249" lon="4.88947">
        <ele>294.24398803711</ele>
        <time>2011-11-06T09:02:04Z</time>
      </trkpt>
      <trkpt lat="45.8428" lon="4.88914">
        <ele>293.39099121094</ele>
        <time>2011-11-06T09:02:16Z</time>
      </trkpt>
      <trkpt lat="45.84306" lon="4.88854">
        <ele>291.72399902344</ele>
        <time>2011-11-06T09:02:30Z</time>
      </trkpt>
      <trkpt lat="45.84324" lon="4.88817">
        <ele>290.10998535156</ele>
        <time>2011-11-06T09:02:39Z</time>
      </trkpt>
      <trkpt lat="45.84328" lon="4.88815">
        <ele>289.19100952148</ele>
        <time>2011-11-06T09:02:52Z</time>
      </trkpt>
      <trkpt lat="45.84341" lon="4.88811">
        <ele>288.31799316406</ele>
        <time>2011-11-06T09:03:05Z</time>
      </trkpt>
      <trkpt lat="45.84355" lon="4.88805">
        <ele>288.16101074219</ele>
        <time>2011-11-06T09:03:32Z</time>
      </trkpt>
      <trkpt lat="45.84365" lon="4.88787">
        <ele>287.20700073242</ele>
        <time>2011-11-06T09:04:02Z</time>
      </trkpt>
      <trkpt lat="45.84373" lon="4.88779">
        <ele>286.80700683594</ele>
        <time>2011-11-06T09:04:08Z</time>
      </trkpt>
      <trkpt lat="45.84378" lon="4.88765">
        <ele>285.9700012207</ele>
        <time>2011-11-06T09:04:17Z</time>
      </trkpt>
      <trkpt lat="45.84391" lon="4.88745">
        <ele>286.00399780273</ele>
        <time>2011-11-06T09:04:32Z</time>
      </trkpt>
      <trkpt lat="45.84403" lon="4.88706">
        <ele>285.64401245117</ele>
        <time>2011-11-06T09:04:46Z</time>
      </trkpt>
      <trkpt lat="45.84409" lon="4.88689">
        <ele>284.97299194336</ele>
        <time>2011-11-06T09:04:55Z</time>
      </trkpt>
      <trkpt lat="45.84417" lon="4.88674">
        <ele>283.79501342773</ele>
        <time>2011-11-06T09:05:05Z</time>
      </trkpt>
      <trkpt lat="45.84429" lon="4.8867">
        <ele>284.20401000977</ele>
        <time>2011-11-06T09:05:14Z</time>
      </trkpt>
      <trkpt lat="45.84449" lon="4.88662">
        <ele>283.48400878906</ele>
        <time>2011-11-06T09:05:27Z</time>
      </trkpt>
      <trkpt lat="45.84479" lon="4.88664">
        <ele>282.97198486328</ele>
        <time>2011-11-06T09:05:37Z</time>
      </trkpt>
      <trkpt lat="45.845" lon="4.88669">
        <ele>282.51400756836</ele>
        <time>2011-11-06T09:05:44Z</time>
      </trkpt>
      <trkpt lat="45.84529" lon="4.88667">
        <ele>282.23498535156</ele>
        <time>2011-11-06T09:05:53Z</time>
      </trkpt>
      <trkpt lat="45.84539" lon="4.88672">
        <ele>282.23001098633</ele>
        <time>2011-11-06T09:06:02Z</time>
      </trkpt>
      <trkpt lat="45.84571" lon="4.88666">
        <ele>280.79800415039</ele>
        <time>2011-11-06T09:06:12Z</time>
      </trkpt>
      <trkpt lat="45.84605" lon="4.88689">
        <ele>280.16598510742</ele>
        <time>2011-11-06T09:06:23Z</time>
      </trkpt>
      <trkpt lat="45.84645" lon="4.88694">
        <ele>279.26501464844</ele>
        <time>2011-11-06T09:06:34Z</time>
      </trkpt>
      <trkpt lat="45.84684" lon="4.88703">
        <ele>278.27499389648</ele>
        <time>2011-11-06T09:06:45Z</time>
      </trkpt>
      <trkpt lat="45.84708" lon="4.88709">
        <ele>277.19198608398</ele>
        <time>2011-11-06T09:06:53Z</time>
      </trkpt>
      <trkpt lat="45.8473" lon="4.88714">
        <ele>276.2080078125</ele>
        <time>2011-11-06T09:07:03Z</time>
      </trkpt>
      <trkpt lat="45.84755" lon="4.88712">
        <ele>275.94900512695</ele>
        <time>2011-11-06T09:07:13Z</time>
      </trkpt>
      <trkpt lat="45.84793" lon="4.88705">
        <ele>275.09698486328</ele>
        <time>2011-11-06T09:07:24Z</time>
      </trkpt>
      <trkpt lat="45.84852" lon="4.887">
        <ele>274.40200805664</ele>
        <time>2011-11-06T09:07:36Z</time>
      </trkpt>
      <trkpt lat="45.84888" lon="4.88689">
        <ele>272.06698608398</ele>
        <time>2011-11-06T09:07:48Z</time>
      </trkpt>
      <trkpt lat="45.84885" lon="4.88639">
        <ele>272.08200073242</ele>
        <time>2011-11-06T09:07:56Z</time>
      </trkpt>
      <trkpt lat="45.84871" lon="4.8858">
        <ele>271.17401123047</ele>
        <time>2011-11-06T09:08:03Z</time>
      </trkpt>
      <trkpt lat="45.84871" lon="4.88509">
        <ele>270.14001464844</ele>
        <time>2011-11-06T09:08:10Z</time>
      </trkpt>
      <trkpt lat="45.84901" lon="4.88407">
        <ele>268.7799987793</ele>
        <time>2011-11-06T09:08:21Z</time>
      </trkpt>
      <trkpt lat="45.84912" lon="4.88318">
        <ele>267.48999023438</ele>
        <time>2011-11-06T09:08:29Z</time>
      </trkpt>
      <trkpt lat="45.84937" lon="4.88206">
        <ele>265.50900268555</ele>
        <time>2011-11-06T09:08:40Z</time>
      </trkpt>
      <trkpt lat="45.84975" lon="4.88069">
        <ele>263.20199584961</ele>
        <time>2011-11-06T09:08:53Z</time>
      </trkpt>
      <trkpt lat="45.85012" lon="4.87918">
        <ele>260.69000244141</ele>
        <time>2011-11-06T09:09:07Z</time>
      </trkpt>
      <trkpt lat="45.8503" lon="4.87819">
        <ele>257.88198852539</ele>
        <time>2011-11-06T09:09:17Z</time>
      </trkpt>
      <trkpt lat="45.85019" lon="4.87749">
        <ele>256.86401367188</ele>
        <time>2011-11-06T09:09:25Z</time>
      </trkpt>
      <trkpt lat="45.85019" lon="4.87728">
        <ele>254.45899963379</ele>
        <time>2011-11-06T09:09:34Z</time>
      </trkpt>
      <trkpt lat="45.85009" lon="4.87681">
        <ele>254.56100463867</ele>
        <time>2011-11-06T09:09:41Z</time>
      </trkpt>
      <trkpt lat="45.84984" lon="4.87617">
        <ele>253.0890045166</ele>
        <time>2011-11-06T09:09:49Z</time>
      </trkpt>
      <trkpt lat="45.84971" lon="4.87532">
        <ele>251.85000610352</ele>
        <time>2011-11-06T09:09:59Z</time>
      </trkpt>
      <trkpt lat="45.85004" lon="4.87499">
        <ele>251.31100463867</ele>
        <time>2011-11-06T09:10:06Z</time>
      </trkpt>
      <trkpt lat="45.85072" lon="4.87496">
        <ele>250.28199768066</ele>
        <time>2011-11-06T09:10:16Z</time>
      </trkpt>
      <trkpt lat="45.85158" lon="4.8746">
        <ele>248.49899291992</ele>
        <time>2011-11-06T09:10:28Z</time>
      </trkpt>
      <trkpt lat="45.85184" lon="4.8743">
        <ele>247.75900268555</ele>
        <time>2011-11-06T09:10:33Z</time>
      </trkpt>
      <trkpt lat="45.85199" lon="4.87377">
        <ele>246.95100402832</ele>
        <time>2011-11-06T09:10:39Z</time>
      </trkpt>
      <trkpt lat="45.85212" lon="4.87277">
        <ele>245.70199584961</ele>
        <time>2011-11-06T09:10:49Z</time>
      </trkpt>
      <trkpt lat="45.85215" lon="4.87232">
        <ele>245.25</ele>
        <time>2011-11-06T09:10:54Z</time>
      </trkpt>
      <trkpt lat="45.85202" lon="4.87182">
        <ele>243.94799804688</ele>
        <time>2011-11-06T09:11:00Z</time>
      </trkpt>
      <trkpt lat="45.85174" lon="4.87139">
        <ele>243.02499389648</ele>
        <time>2011-11-06T09:11:07Z</time>
      </trkpt>
      <trkpt lat="45.85182" lon="4.87107">
        <ele>242.98500061035</ele>
        <time>2011-11-06T09:11:13Z</time>
      </trkpt>
      <trkpt lat="45.8521" lon="4.8705">
        <ele>242.4940032959</ele>
        <time>2011-11-06T09:11:20Z</time>
      </trkpt>
      <trkpt lat="45.85197" lon="4.86983">
        <ele>240.86700439453</ele>
        <time>2011-11-06T09:11:27Z</time>
      </trkpt>
      <trkpt lat="45.85129" lon="4.86837">
        <ele>239.05599975586</ele>
        <time>2011-11-06T09:11:44Z</time>
      </trkpt>
      <trkpt lat="45.85089" lon="4.86704">
        <ele>236.42999267578</ele>
        <time>2011-11-06T09:11:57Z</time>
      </trkpt>
      <trkpt lat="45.85039" lon="4.86596">
        <ele>234.39700317383</ele>
        <time>2011-11-06T09:12:10Z</time>
      </trkpt>
      <trkpt lat="45.85003" lon="4.86518">
        <ele>233.53799438477</ele>
        <time>2011-11-06T09:12:19Z</time>
      </trkpt>
      <trkpt lat="45.84969" lon="4.8648">
        <ele>232.85000610352</ele>
        <time>2011-11-06T09:12:30Z</time>
      </trkpt>
      <trkpt lat="45.84947" lon="4.86463">
        <ele>232.7440032959</ele>
        <time>2011-11-06T09:12:45Z</time>
      </trkpt>
      <trkpt lat="45.8491" lon="4.86453">
        <ele>230.48199462891</ele>
        <time>2011-11-06T09:13:00Z</time>
      </trkpt>
      <trkpt lat="45.84887" lon="4.86442">
        <ele>228.45799255371</ele>
        <time>2011-11-06T09:13:07Z</time>
      </trkpt>
      <trkpt lat="45.8488" lon="4.86422">
        <ele>227.96099853516</ele>
        <time>2011-11-06T09:13:16Z</time>
      </trkpt>
      <trkpt lat="45.84882" lon="4.86398">
        <ele>227.92100524902</ele>
        <time>2011-11-06T09:13:33Z</time>
      </trkpt>
      <trkpt lat="45.84905" lon="4.86369">
        <ele>228.3630065918</ele>
        <time>2011-11-06T09:13:40Z</time>
      </trkpt>
      <trkpt lat="45.84926" lon="4.86313">
        <ele>228.87699890137</ele>
        <time>2011-11-06T09:13:51Z</time>
      </trkpt>
      <trkpt lat="45.84933" lon="4.86279">
        <ele>231.01600646973</ele>
        <time>2011-11-06T09:14:02Z</time>
      </trkpt>
      <trkpt lat="45.84938" lon="4.86258">
        <ele>233.44599914551</ele>
        <time>2011-11-06T09:14:13Z</time>
      </trkpt>
      <trkpt lat="45.84953" lon="4.86229">
        <ele>238.58799743652</ele>
        <time>2011-11-06T09:14:30Z</time>
      </trkpt>
      <trkpt lat="45.84972" lon="4.86201">
        <ele>244.2559967041</ele>
        <time>2011-11-06T09:14:47Z</time>
      </trkpt>
      <trkpt lat="45.84993" lon="4.86188">
        <ele>250.60299682617</ele>
        <time>2011-11-06T09:15:05Z</time>
      </trkpt>
      <trkpt lat="45.85003" lon="4.86184">
        <ele>254.16000366211</ele>
        <time>2011-11-06T09:15:16Z</time>
      </trkpt>
      <trkpt lat="45.85019" lon="4.86167">
        <ele>257.75399780273</ele>
        <time>2011-11-06T09:15:29Z</time>
      </trkpt>
      <trkpt lat="45.8503" lon="4.86147">
        <ele>259.08700561523</ele>
        <time>2011-11-06T09:15:41Z</time>
      </trkpt>
      <trkpt lat="45.85016" lon="4.8611">
        <ele>258.96398925781</ele>
        <time>2011-11-06T09:15:53Z</time>
      </trkpt>
      <trkpt lat="45.84997" lon="4.8606">
        <ele>257.07299804688</ele>
        <time>2011-11-06T09:16:03Z</time>
      </trkpt>
      <trkpt lat="45.8502" lon="4.86038">
        <ele>255.00799560547</ele>
        <time>2011-11-06T09:16:13Z</time>
      </trkpt>
      <trkpt lat="45.85047" lon="4.86008">
        <ele>254.30400085449</ele>
        <time>2011-11-06T09:16:25Z</time>
      </trkpt>
      <trkpt lat="45.85091" lon="4.85956">
        <ele>255.43099975586</ele>
        <time>2011-11-06T09:16:40Z</time>
      </trkpt>
      <trkpt lat="45.85124" lon="4.85911">
        <ele>256.51901245117</ele>
        <time>2011-11-06T09:16:52Z</time>
      </trkpt>
      <trkpt lat="45.85175" lon="4.85855">
        <ele>258.45001220703</ele>
        <time>2011-11-06T09:17:07Z</time>
      </trkpt>
      <trkpt lat="45.8524" lon="4.85789">
        <ele>257.99398803711</ele>
        <time>2011-11-06T09:17:21Z</time>
      </trkpt>
      <trkpt lat="45.85295" lon="4.85701">
        <ele>257.54400634766</ele>
        <time>2011-11-06T09:17:36Z</time>
      </trkpt>
      <trkpt lat="45.85323" lon="4.85656">
        <ele>257.73001098633</ele>
        <time>2011-11-06T09:17:44Z</time>
      </trkpt>
      <trkpt lat="45.85354" lon="4.85624">
        <ele>256.39599609375</ele>
        <time>2011-11-06T09:17:54Z</time>
      </trkpt>
      <trkpt lat="45.85373" lon="4.85606">
        <ele>255.13200378418</ele>
        <time>2011-11-06T09:18:06Z</time>
      </trkpt>
      <trkpt lat="45.85392" lon="4.85588">
        <ele>253.98199462891</ele>
        <time>2011-11-06T09:18:12Z</time>
      </trkpt>
      <trkpt lat="45.85432" lon="4.85551">
        <ele>250.93600463867</ele>
        <time>2011-11-06T09:18:22Z</time>
      </trkpt>
      <trkpt lat="45.85464" lon="4.85521">
        <ele>248.30799865723</ele>
        <time>2011-11-06T09:18:33Z</time>
      </trkpt>
      <trkpt lat="45.85503" lon="4.85503">
        <ele>243.48500061035</ele>
        <time>2011-11-06T09:18:45Z</time>
      </trkpt>
      <trkpt lat="45.85535" lon="4.85485">
        <ele>238.44999694824</ele>
        <time>2011-11-06T09:18:53Z</time>
      </trkpt>
      <trkpt lat="45.85582" lon="4.8546">
        <ele>230.42799377441</ele>
        <time>2011-11-06T09:19:04Z</time>
      </trkpt>
      <trkpt lat="45.85611" lon="4.85479">
        <ele>227.2140045166</ele>
        <time>2011-11-06T09:19:14Z</time>
      </trkpt>
      <trkpt lat="45.8563" lon="4.85513">
        <ele>226.80799865723</ele>
        <time>2011-11-06T09:19:24Z</time>
      </trkpt>
      <trkpt lat="45.85656" lon="4.85515">
        <ele>226.34899902344</ele>
        <time>2011-11-06T09:19:33Z</time>
      </trkpt>
      <trkpt lat="45.85669" lon="4.85516">
        <ele>226.47200012207</ele>
        <time>2011-11-06T09:19:59Z</time>
      </trkpt>
      <trkpt lat="45.85671" lon="4.8551">
        <ele>227.10099792481</ele>
        <time>2011-11-06T09:20:09Z</time>
      </trkpt>
      <trkpt lat="45.8567" lon="4.85513">
        <ele>226.81199645996</ele>
        <time>2011-11-06T09:20:28Z</time>
      </trkpt>
      <trkpt lat="45.85681" lon="4.8554">
        <ele>226.77900695801</ele>
        <time>2011-11-06T09:20:39Z</time>
      </trkpt>
      <trkpt lat="45.85695" lon="4.85551">
        <ele>227.52000427246</ele>
        <time>2011-11-06T09:20:49Z</time>
      </trkpt>
      <trkpt lat="45.85705" lon="4.85569">
        <ele>227.34700012207</ele>
        <time>2011-11-06T09:20:57Z</time>
      </trkpt>
      <trkpt lat="45.85709" lon="4.85583">
        <ele>227.08000183106</ele>
        <time>2011-11-06T09:21:11Z</time>
      </trkpt>
      <trkpt lat="45.85708" lon="4.85584">
        <ele>226.81700134277</ele>
        <time>2011-11-06T09:21:50Z</time>
      </trkpt>
      <trkpt lat="45.85699" lon="4.85564">
        <ele>227.19999694824</ele>
        <time>2011-11-06T09:21:59Z</time>
      </trkpt>
      <trkpt lat="45.85678" lon="4.85544">
        <ele>228.31399536133</ele>
        <time>2011-11-06T09:22:09Z</time>
      </trkpt>
      <trkpt lat="45.85667" lon="4.85514">
        <ele>227.40899658203</ele>
        <time>2011-11-06T09:22:19Z</time>
      </trkpt>
      <trkpt lat="45.85685" lon="4.85509">
        <ele>228.79899597168</ele>
        <time>2011-11-06T09:22:29Z</time>
      </trkpt>
      <trkpt lat="45.85706" lon="4.85516">
        <ele>230.57200622559</ele>
        <time>2011-11-06T09:22:39Z</time>
      </trkpt>
      <trkpt lat="45.85727" lon="4.85525">
        <ele>233.06700134277</ele>
        <time>2011-11-06T09:22:52Z</time>
      </trkpt>
      <trkpt lat="45.85748" lon="4.85517">
        <ele>235.42300415039</ele>
        <time>2011-11-06T09:23:03Z</time>
      </trkpt>
      <trkpt lat="45.85772" lon="4.85506">
        <ele>237.94900512695</ele>
        <time>2011-11-06T09:23:15Z</time>
      </trkpt>
      <trkpt lat="45.85789" lon="4.85503">
        <ele>240.1549987793</ele>
        <time>2011-11-06T09:23:26Z</time>
      </trkpt>
      <trkpt lat="45.8581" lon="4.85504">
        <ele>242.82899475098</ele>
        <time>2011-11-06T09:23:40Z</time>
      </trkpt>
      <trkpt lat="45.8583" lon="4.85499">
        <ele>245.0059967041</ele>
        <time>2011-11-06T09:23:50Z</time>
      </trkpt>
      <trkpt lat="45.85852" lon="4.85488">
        <ele>247.76300048828</ele>
        <time>2011-11-06T09:24:02Z</time>
      </trkpt>
      <trkpt lat="45.85861" lon="4.85486">
        <ele>250.11199951172</ele>
        <time>2011-11-06T09:24:10Z</time>
      </trkpt>
      <trkpt lat="45.85876" lon="4.85471">
        <ele>253.73599243164</ele>
        <time>2011-11-06T09:24:24Z</time>
      </trkpt>
      <trkpt lat="45.85885" lon="4.85465">
        <ele>256.44000244141</ele>
        <time>2011-11-06T09:24:34Z</time>
      </trkpt>
      <trkpt lat="45.85886" lon="4.85464">
        <ele>257.73300170898</ele>
        <time>2011-11-06T09:24:59Z</time>
      </trkpt>
      <trkpt lat="45.85897" lon="4.85453">
        <ele>260.50799560547</ele>
        <time>2011-11-06T09:25:15Z</time>
      </trkpt>
      <trkpt lat="45.859" lon="4.85457">
        <ele>262.16500854492</ele>
        <time>2011-11-06T09:25:42Z</time>
      </trkpt>
      <trkpt lat="45.85909" lon="4.85439">
        <ele>266.00900268555</ele>
        <time>2011-11-06T09:25:57Z</time>
      </trkpt>
      <trkpt lat="45.85917" lon="4.85427">
        <ele>268.62600708008</ele>
        <time>2011-11-06T09:26:11Z</time>
      </trkpt>
      <trkpt lat="45.85923" lon="4.85417">
        <ele>271.03799438477</ele>
        <time>2011-11-06T09:26:26Z</time>
      </trkpt>
      <trkpt lat="45.85924" lon="4.85401">
        <ele>272.27801513672</ele>
        <time>2011-11-06T09:26:48Z</time>
      </trkpt>
      <trkpt lat="45.8593" lon="4.85377">
        <ele>274.83099365234</ele>
        <time>2011-11-06T09:26:58Z</time>
      </trkpt>
      <trkpt lat="45.85946" lon="4.85364">
        <ele>277.44799804688</ele>
        <time>2011-11-06T09:27:08Z</time>
      </trkpt>
      <trkpt lat="45.85952" lon="4.8538">
        <ele>278.33999633789</ele>
        <time>2011-11-06T09:27:19Z</time>
      </trkpt>
      <trkpt lat="45.85973" lon="4.85405">
        <ele>280.20401000977</ele>
        <time>2011-11-06T09:27:32Z</time>
      </trkpt>
      <trkpt lat="45.86003" lon="4.85427">
        <ele>282.92098999023</ele>
        <time>2011-11-06T09:27:47Z</time>
      </trkpt>
      <trkpt lat="45.8604" lon="4.85452">
        <ele>286.0530090332</ele>
        <time>2011-11-06T09:28:02Z</time>
      </trkpt>
      <trkpt lat="45.86074" lon="4.85475">
        <ele>288.15301513672</ele>
        <time>2011-11-06T09:28:15Z</time>
      </trkpt>
      <trkpt lat="45.86105" lon="4.85501">
        <ele>290.1669921875</ele>
        <time>2011-11-06T09:28:28Z</time>
      </trkpt>
      <trkpt lat="45.86145" lon="4.85536">
        <ele>291.2799987793</ele>
        <time>2011-11-06T09:28:42Z</time>
      </trkpt>
      <trkpt lat="45.8619" lon="4.85589">
        <ele>292.79299926758</ele>
        <time>2011-11-06T09:28:58Z</time>
      </trkpt>
      <trkpt lat="45.86238" lon="4.85663">
        <ele>294.20999145508</ele>
        <time>2011-11-06T09:29:15Z</time>
      </trkpt>
      <trkpt lat="45.86298" lon="4.8571">
        <ele>295.85299682617</ele>
        <time>2011-11-06T09:29:31Z</time>
      </trkpt>
      <trkpt lat="45.86336" lon="4.85719">
        <ele>296.70700073242</ele>
        <time>2011-11-06T09:29:41Z</time>
      </trkpt>
      <trkpt lat="45.86342" lon="4.85792">
        <ele>294.22900390625</ele>
        <time>2011-11-06T09:29:54Z</time>
      </trkpt>
      <trkpt lat="45.8634" lon="4.85856">
        <ele>294.46200561523</ele>
        <time>2011-11-06T09:30:08Z</time>
      </trkpt>
      <trkpt lat="45.86344" lon="4.85874">
        <ele>294.7619934082</ele>
        <time>2011-11-06T09:30:13Z</time>
      </trkpt>
      <trkpt lat="45.86388" lon="4.85901">
        <ele>296.62799072266</ele>
        <time>2011-11-06T09:30:28Z</time>
      </trkpt>
      <trkpt lat="45.86423" lon="4.8592">
        <ele>297.74600219727</ele>
        <time>2011-11-06T09:30:43Z</time>
      </trkpt>
      <trkpt lat="45.86446" lon="4.85927">
        <ele>299.73699951172</ele>
        <time>2011-11-06T09:30:55Z</time>
      </trkpt>
      <trkpt lat="45.86487" lon="4.8594">
        <ele>302.64300537109</ele>
        <time>2011-11-06T09:31:10Z</time>
      </trkpt>
      <trkpt lat="45.86542" lon="4.85978">
        <ele>304.66101074219</ele>
        <time>2011-11-06T09:31:27Z</time>
      </trkpt>
      <trkpt lat="45.866" lon="4.86005">
        <ele>305.18301391602</ele>
        <time>2011-11-06T09:31:42Z</time>
      </trkpt>
      <trkpt lat="45.86658" lon="4.86024">
        <ele>305.09100341797</ele>
        <time>2011-11-06T09:31:56Z</time>
      </trkpt>
      <trkpt lat="45.86717" lon="4.86072">
        <ele>308.17599487305</ele>
        <time>2011-11-06T09:32:13Z</time>
      </trkpt>
      <trkpt lat="45.86749" lon="4.86095">
        <ele>309.03298950195</ele>
        <time>2011-11-06T09:32:22Z</time>
      </trkpt>
      <trkpt lat="45.86774" lon="4.861">
        <ele>309.21499633789</ele>
        <time>2011-11-06T09:32:28Z</time>
      </trkpt>
      <trkpt lat="45.86842" lon="4.86104">
        <ele>307.83700561523</ele>
        <time>2011-11-06T09:32:44Z</time>
      </trkpt>
      <trkpt lat="45.86889" lon="4.86107">
        <ele>308.0719909668</ele>
        <time>2011-11-06T09:32:55Z</time>
      </trkpt>
      <trkpt lat="45.86918" lon="4.86127">
        <ele>307.85699462891</ele>
        <time>2011-11-06T09:33:02Z</time>
      </trkpt>
      <trkpt lat="45.8695" lon="4.86172">
        <ele>308.10900878906</ele>
        <time>2011-11-06T09:33:12Z</time>
      </trkpt>
      <trkpt lat="45.86992" lon="4.86186">
        <ele>308.52398681641</ele>
        <time>2011-11-06T09:33:22Z</time>
      </trkpt>
      <trkpt lat="45.87023" lon="4.86173">
        <ele>309.32000732422</ele>
        <time>2011-11-06T09:33:29Z</time>
      </trkpt>
      <trkpt lat="45.87064" lon="4.86154">
        <ele>309.39300537109</ele>
        <time>2011-11-06T09:33:39Z</time>
      </trkpt>
      <trkpt lat="45.87111" lon="4.86124">
        <ele>309.47299194336</ele>
        <time>2011-11-06T09:33:52Z</time>
      </trkpt>
      <trkpt lat="45.87168" lon="4.86114">
        <ele>310.61499023438</ele>
        <time>2011-11-06T09:34:07Z</time>
      </trkpt>
      <trkpt lat="45.87229" lon="4.86126">
        <ele>310.86099243164</ele>
        <time>2011-11-06T09:34:22Z</time>
      </trkpt>
      <trkpt lat="45.87292" lon="4.86124">
        <ele>310.26400756836</ele>
        <time>2011-11-06T09:34:33Z</time>
      </trkpt>
      <trkpt lat="45.8733" lon="4.86129">
        <ele>308.8210144043</ele>
        <time>2011-11-06T09:34:41Z</time>
      </trkpt>
      <trkpt lat="45.87398" lon="4.8618">
        <ele>307.52700805664</ele>
        <time>2011-11-06T09:34:55Z</time>
      </trkpt>
      <trkpt lat="45.8748" lon="4.86182">
        <ele>309.82400512695</ele>
        <time>2011-11-06T09:35:14Z</time>
      </trkpt>
      <trkpt lat="45.87568" lon="4.86172">
        <ele>309.05599975586</ele>
        <time>2011-11-06T09:35:32Z</time>
      </trkpt>
      <trkpt lat="45.87634" lon="4.86167">
        <ele>308.63598632812</ele>
        <time>2011-11-06T09:35:44Z</time>
      </trkpt>
      <trkpt lat="45.87728" lon="4.86168">
        <ele>308.26400756836</ele>
        <time>2011-11-06T09:36:02Z</time>
      </trkpt>
      <trkpt lat="45.87805" lon="4.86159">
        <ele>308.86199951172</ele>
        <time>2011-11-06T09:36:18Z</time>
      </trkpt>
      <trkpt lat="45.87836" lon="4.86172">
        <ele>308.45999145508</ele>
        <time>2011-11-06T09:36:28Z</time>
      </trkpt>
      <trkpt lat="45.87836" lon="4.86211">
        <ele>310.68701171875</ele>
        <time>2011-11-06T09:36:40Z</time>
      </trkpt>
      <trkpt lat="45.87836" lon="4.86247">
        <ele>313.77700805664</ele>
        <time>2011-11-06T09:36:52Z</time>
      </trkpt>
      <trkpt lat="45.87865" lon="4.86264">
        <ele>315.96099853516</ele>
        <time>2011-11-06T09:37:05Z</time>
      </trkpt>
      <trkpt lat="45.87916" lon="4.86285">
        <ele>317.77301025391</ele>
        <time>2011-11-06T09:37:20Z</time>
      </trkpt>
      <trkpt lat="45.87977" lon="4.86272">
        <ele>318.09600830078</ele>
        <time>2011-11-06T09:37:35Z</time>
      </trkpt>
      <trkpt lat="45.88042" lon="4.86254">
        <ele>316.95901489258</ele>
        <time>2011-11-06T09:37:48Z</time>
      </trkpt>
      <trkpt lat="45.88085" lon="4.86258">
        <ele>314.43399047852</ele>
        <time>2011-11-06T09:37:56Z</time>
      </trkpt>
      <trkpt lat="45.88103" lon="4.86338">
        <ele>312.81600952148</ele>
        <time>2011-11-06T09:38:07Z</time>
      </trkpt>
      <trkpt lat="45.88129" lon="4.86492">
        <ele>310.36499023438</ele>
        <time>2011-11-06T09:38:23Z</time>
      </trkpt>
      <trkpt lat="45.88145" lon="4.86616">
        <ele>308.62600708008</ele>
        <time>2011-11-06T09:38:36Z</time>
      </trkpt>
      <trkpt lat="45.88181" lon="4.86788">
        <ele>307.78500366211</ele>
        <time>2011-11-06T09:38:56Z</time>
      </trkpt>
      <trkpt lat="45.88193" lon="4.8694">
        <ele>307.58200073242</ele>
        <time>2011-11-06T09:39:14Z</time>
      </trkpt>
      <trkpt lat="45.88204" lon="4.86988">
        <ele>307.29098510742</ele>
        <time>2011-11-06T09:39:23Z</time>
      </trkpt>
      <trkpt lat="45.88289" lon="4.86977">
        <ele>308.30899047852</ele>
        <time>2011-11-06T09:39:39Z</time>
      </trkpt>
      <trkpt lat="45.88383" lon="4.86984">
        <ele>307.78799438477</ele>
        <time>2011-11-06T09:39:55Z</time>
      </trkpt>
      <trkpt lat="45.88469" lon="4.8708">
        <ele>305.11499023438</ele>
        <time>2011-11-06T09:40:12Z</time>
      </trkpt>
      <trkpt lat="45.88491" lon="4.87161">
        <ele>301.98498535156</ele>
        <time>2011-11-06T09:40:21Z</time>
      </trkpt>
      <trkpt lat="45.88524" lon="4.87236">
        <ele>299.94000244141</ele>
        <time>2011-11-06T09:40:30Z</time>
      </trkpt>
      <trkpt lat="45.88565" lon="4.87271">
        <ele>299.17300415039</ele>
        <time>2011-11-06T09:40:37Z</time>
      </trkpt>
      <trkpt lat="45.88615" lon="4.87264">
        <ele>297.74301147461</ele>
        <time>2011-11-06T09:40:44Z</time>
      </trkpt>
      <trkpt lat="45.88684" lon="4.87248">
        <ele>293.64099121094</ele>
        <time>2011-11-06T09:40:53Z</time>
      </trkpt>
      <trkpt lat="45.887" lon="4.87261">
        <ele>290.36999511719</ele>
        <time>2011-11-06T09:40:56Z</time>
      </trkpt>
      <trkpt lat="45.88789" lon="4.87256">
        <ele>281.63198852539</ele>
        <time>2011-11-06T09:41:10Z</time>
      </trkpt>
      <trkpt lat="45.88863" lon="4.87242">
        <ele>279.35998535156</ele>
        <time>2011-11-06T09:41:22Z</time>
      </trkpt>
      <trkpt lat="45.88955" lon="4.8723">
        <ele>277.85998535156</ele>
        <time>2011-11-06T09:41:38Z</time>
      </trkpt>
      <trkpt lat="45.89009" lon="4.87222">
        <ele>276.12100219727</ele>
        <time>2011-11-06T09:41:46Z</time>
      </trkpt>
      <trkpt lat="45.89044" lon="4.87241">
        <ele>273.18701171875</ele>
        <time>2011-11-06T09:41:52Z</time>
      </trkpt>
      <trkpt lat="45.89104" lon="4.87318">
        <ele>266.79000854492</ele>
        <time>2011-11-06T09:42:04Z</time>
      </trkpt>
      <trkpt lat="45.8915" lon="4.87373">
        <ele>268.20901489258</ele>
        <time>2011-11-06T09:42:17Z</time>
      </trkpt>
      <trkpt lat="45.89196" lon="4.8742">
        <ele>272.94400024414</ele>
        <time>2011-11-06T09:42:32Z</time>
      </trkpt>
      <trkpt lat="45.89247" lon="4.87471">
        <ele>275.27398681641</ele>
        <time>2011-11-06T09:42:48Z</time>
      </trkpt>
      <trkpt lat="45.89304" lon="4.87525">
        <ele>277.03799438477</ele>
        <time>2011-11-06T09:43:06Z</time>
      </trkpt>
      <trkpt lat="45.8936" lon="4.87551">
        <ele>279.7200012207</ele>
        <time>2011-11-06T09:43:23Z</time>
      </trkpt>
      <trkpt lat="45.89405" lon="4.87578">
        <ele>281.93499755859</ele>
        <time>2011-11-06T09:43:37Z</time>
      </trkpt>
      <trkpt lat="45.89446" lon="4.87604">
        <ele>282.18899536133</ele>
        <time>2011-11-06T09:43:50Z</time>
      </trkpt>
      <trkpt lat="45.8949" lon="4.87629">
        <ele>282.71798706055</ele>
        <time>2011-11-06T09:44:02Z</time>
      </trkpt>
      <trkpt lat="45.89539" lon="4.8762">
        <ele>281.97601318359</ele>
        <time>2011-11-06T09:44:13Z</time>
      </trkpt>
      <trkpt lat="45.89614" lon="4.87569">
        <ele>278.11099243164</ele>
        <time>2011-11-06T09:44:26Z</time>
      </trkpt>
      <trkpt lat="45.89651" lon="4.87553">
        <ele>277.66299438477</ele>
        <time>2011-11-06T09:44:34Z</time>
      </trkpt>
      <trkpt lat="45.89687" lon="4.87558">
        <ele>280.97198486328</ele>
        <time>2011-11-06T09:44:48Z</time>
      </trkpt>
      <trkpt lat="45.89714" lon="4.87559">
        <ele>283.86599731445</ele>
        <time>2011-11-06T09:44:59Z</time>
      </trkpt>
      <trkpt lat="45.89743" lon="4.87552">
        <ele>286.51901245117</ele>
        <time>2011-11-06T09:45:12Z</time>
      </trkpt>
      <trkpt lat="45.89779" lon="4.87543">
        <ele>291.49499511719</ele>
        <time>2011-11-06T09:45:27Z</time>
      </trkpt>
      <trkpt lat="45.89814" lon="4.87534">
        <ele>295.25799560547</ele>
        <time>2011-11-06T09:45:41Z</time>
      </trkpt>
      <trkpt lat="45.89866" lon="4.87522">
        <ele>297.51000976562</ele>
        <time>2011-11-06T09:46:00Z</time>
      </trkpt>
      <trkpt lat="45.89931" lon="4.87501">
        <ele>297.35198974609</ele>
        <time>2011-11-06T09:46:19Z</time>
      </trkpt>
      <trkpt lat="45.89946" lon="4.87509">
        <ele>297.46398925781</ele>
        <time>2011-11-06T09:46:25Z</time>
      </trkpt>
      <trkpt lat="45.89952" lon="4.87562">
        <ele>297.41101074219</ele>
        <time>2011-11-06T09:46:35Z</time>
      </trkpt>
      <trkpt lat="45.89958" lon="4.87643">
        <ele>298.00100708008</ele>
        <time>2011-11-06T09:46:50Z</time>
      </trkpt>
      <trkpt lat="45.89965" lon="4.8769">
        <ele>298.25799560547</ele>
        <time>2011-11-06T09:46:58Z</time>
      </trkpt>
      <trkpt lat="45.90011" lon="4.87791">
        <ele>298.13900756836</ele>
        <time>2011-11-06T09:47:14Z</time>
      </trkpt>
      <trkpt lat="45.90038" lon="4.87888">
        <ele>297.47500610352</ele>
        <time>2011-11-06T09:47:27Z</time>
      </trkpt>
      <trkpt lat="45.90018" lon="4.87972">
        <ele>297.74600219727</ele>
        <time>2011-11-06T09:47:39Z</time>
      </trkpt>
      <trkpt lat="45.89994" lon="4.87998">
        <ele>297.15899658203</ele>
        <time>2011-11-06T09:47:45Z</time>
      </trkpt>
      <trkpt lat="45.89954" lon="4.88008">
        <ele>294.53100585938</ele>
        <time>2011-11-06T09:47:52Z</time>
      </trkpt>
      <trkpt lat="45.89953" lon="4.88031">
        <ele>291.19000244141</ele>
        <time>2011-11-06T09:47:58Z</time>
      </trkpt>
      <trkpt lat="45.89986" lon="4.88035">
        <ele>291.60299682617</ele>
        <time>2011-11-06T09:48:08Z</time>
      </trkpt>
      <trkpt lat="45.90035" lon="4.88018">
        <ele>294.00900268555</ele>
        <time>2011-11-06T09:48:21Z</time>
      </trkpt>
      <trkpt lat="45.90098" lon="4.88013">
        <ele>294.72900390625</ele>
        <time>2011-11-06T09:48:33Z</time>
      </trkpt>
      <trkpt lat="45.90181" lon="4.87997">
        <ele>297.05200195312</ele>
        <time>2011-11-06T09:48:52Z</time>
      </trkpt>
      <trkpt lat="45.90273" lon="4.8798">
        <ele>298.45901489258</ele>
        <time>2011-11-06T09:49:12Z</time>
      </trkpt>
      <trkpt lat="45.90388" lon="4.87958">
        <ele>299.13400268555</ele>
        <time>2011-11-06T09:49:35Z</time>
      </trkpt>
      <trkpt lat="45.90469" lon="4.87956">
        <ele>299.23400878906</ele>
        <time>2011-11-06T09:49:52Z</time>
      </trkpt>
      <trkpt lat="45.90518" lon="4.87949">
        <ele>298.30200195312</ele>
        <time>2011-11-06T09:50:05Z</time>
      </trkpt>
      <trkpt lat="45.90543" lon="4.87934">
        <ele>298.91400146484</ele>
        <time>2011-11-06T09:50:12Z</time>
      </trkpt>
      <trkpt lat="45.90618" lon="4.8796">
        <ele>298.11099243164</ele>
        <time>2011-11-06T09:50:30Z</time>
      </trkpt>
      <trkpt lat="45.90717" lon="4.87997">
        <ele>298.81100463867</ele>
        <time>2011-11-06T09:50:52Z</time>
      </trkpt>
      <trkpt lat="45.90822" lon="4.88034">
        <ele>299.52301025391</ele>
        <time>2011-11-06T09:51:15Z</time>
      </trkpt>
      <trkpt lat="45.90934" lon="4.88074">
        <ele>299.49899291992</ele>
        <time>2011-11-06T09:51:40Z</time>
      </trkpt>
      <trkpt lat="45.9104" lon="4.88111">
        <ele>298.22198486328</ele>
        <time>2011-11-06T09:52:01Z</time>
      </trkpt>
      <trkpt lat="45.91151" lon="4.8815">
        <ele>294.53698730469</ele>
        <time>2011-11-06T09:52:18Z</time>
      </trkpt>
      <trkpt lat="45.91266" lon="4.8819">
        <ele>290.33200073242</ele>
        <time>2011-11-06T09:52:35Z</time>
      </trkpt>
      <trkpt lat="45.9135" lon="4.88218">
        <ele>290.77700805664</ele>
        <time>2011-11-06T09:52:52Z</time>
      </trkpt>
      <trkpt lat="45.91433" lon="4.88248">
        <ele>290.99899291992</ele>
        <time>2011-11-06T09:53:10Z</time>
      </trkpt>
      <trkpt lat="45.91521" lon="4.88278">
        <ele>292.30801391602</ele>
        <time>2011-11-06T09:53:30Z</time>
      </trkpt>
      <trkpt lat="45.91599" lon="4.88304">
        <ele>290.48001098633</ele>
        <time>2011-11-06T09:53:46Z</time>
      </trkpt>
      <trkpt lat="45.91709" lon="4.88343">
        <ele>287.68301391602</ele>
        <time>2011-11-06T09:54:04Z</time>
      </trkpt>
      <trkpt lat="45.91828" lon="4.8838">
        <ele>284.25698852539</ele>
        <time>2011-11-06T09:54:21Z</time>
      </trkpt>
      <trkpt lat="45.91894" lon="4.88362">
        <ele>283.20901489258</ele>
        <time>2011-11-06T09:54:32Z</time>
      </trkpt>
      <trkpt lat="45.9196" lon="4.88329">
        <ele>284.1130065918</ele>
        <time>2011-11-06T09:54:48Z</time>
      </trkpt>
      <trkpt lat="45.92006" lon="4.883">
        <ele>286.33700561523</ele>
        <time>2011-11-06T09:55:03Z</time>
      </trkpt>
      <trkpt lat="45.92063" lon="4.88269">
        <ele>290.57501220703</ele>
        <time>2011-11-06T09:55:22Z</time>
      </trkpt>
      <trkpt lat="45.92113" lon="4.88228">
        <ele>294.78201293945</ele>
        <time>2011-11-06T09:55:40Z</time>
      </trkpt>
      <trkpt lat="45.92144" lon="4.88197">
        <ele>296.76699829102</ele>
        <time>2011-11-06T09:55:53Z</time>
      </trkpt>
      <trkpt lat="45.92157" lon="4.88164">
        <ele>296.71600341797</ele>
        <time>2011-11-06T09:56:01Z</time>
      </trkpt>
      <trkpt lat="45.92169" lon="4.8805">
        <ele>297.68399047852</ele>
        <time>2011-11-06T09:56:19Z</time>
      </trkpt>
      <trkpt lat="45.92186" lon="4.88012">
        <ele>297.86801147461</ele>
        <time>2011-11-06T09:56:27Z</time>
      </trkpt>
      <trkpt lat="45.92251" lon="4.87979">
        <ele>299.05599975586</ele>
        <time>2011-11-06T09:56:42Z</time>
      </trkpt>
      <trkpt lat="45.9231" lon="4.87942">
        <ele>297.89599609375</ele>
        <time>2011-11-06T09:56:54Z</time>
      </trkpt>
      <trkpt lat="45.92415" lon="4.87871">
        <ele>294.18701171875</ele>
        <time>2011-11-06T09:57:11Z</time>
      </trkpt>
      <trkpt lat="45.92508" lon="4.87807">
        <ele>293.64599609375</ele>
        <time>2011-11-06T09:57:28Z</time>
      </trkpt>
      <trkpt lat="45.92586" lon="4.87742">
        <ele>296.33599853516</ele>
        <time>2011-11-06T09:57:46Z</time>
      </trkpt>
      <trkpt lat="45.9262" lon="4.87701">
        <ele>297.15600585938</ele>
        <time>2011-11-06T09:57:55Z</time>
      </trkpt>
      <trkpt lat="45.92651" lon="4.876">
        <ele>296.58401489258</ele>
        <time>2011-11-06T09:58:10Z</time>
      </trkpt>
      <trkpt lat="45.92682" lon="4.87577">
        <ele>297.74099731445</ele>
        <time>2011-11-06T09:58:18Z</time>
      </trkpt>
      <trkpt lat="45.92719" lon="4.87564">
        <ele>298.80999755859</ele>
        <time>2011-11-06T09:58:26Z</time>
      </trkpt>
      <trkpt lat="45.92799" lon="4.87525">
        <ele>299.97299194336</ele>
        <time>2011-11-06T09:58:43Z</time>
      </trkpt>
      <trkpt lat="45.92889" lon="4.87479">
        <ele>300.90899658203</ele>
        <time>2011-11-06T09:59:03Z</time>
      </trkpt>
      <trkpt lat="45.92981" lon="4.87432">
        <ele>302.39498901367</ele>
        <time>2011-11-06T09:59:23Z</time>
      </trkpt>
      <trkpt lat="45.93054" lon="4.87374">
        <ele>302.72698974609</ele>
        <time>2011-11-06T09:59:38Z</time>
      </trkpt>
      <trkpt lat="45.93118" lon="4.87293">
        <ele>300.09298706055</ele>
        <time>2011-11-06T09:59:51Z</time>
      </trkpt>
      <trkpt lat="45.93184" lon="4.87244">
        <ele>298.98098754883</ele>
        <time>2011-11-06T10:00:02Z</time>
      </trkpt>
      <trkpt lat="45.93258" lon="4.87202">
        <ele>298.18798828125</ele>
        <time>2011-11-06T10:00:14Z</time>
      </trkpt>
      <trkpt lat="45.93346" lon="4.87149">
        <ele>296.91198730469</ele>
        <time>2011-11-06T10:00:29Z</time>
      </trkpt>
      <trkpt lat="45.93431" lon="4.87095">
        <ele>297.62399291992</ele>
        <time>2011-11-06T10:00:45Z</time>
      </trkpt>
      <trkpt lat="45.93496" lon="4.87032">
        <ele>298.76699829102</ele>
        <time>2011-11-06T10:01:00Z</time>
      </trkpt>
      <trkpt lat="45.93575" lon="4.86963">
        <ele>297.39099121094</ele>
        <time>2011-11-06T10:01:14Z</time>
      </trkpt>
      <trkpt lat="45.93604" lon="4.86942">
        <ele>294.44100952148</ele>
        <time>2011-11-06T10:01:21Z</time>
      </trkpt>
      <trkpt lat="45.93625" lon="4.86945">
        <ele>292.69299316406</ele>
        <time>2011-11-06T10:01:29Z</time>
      </trkpt>
      <trkpt lat="45.93709" lon="4.86963">
        <ele>294.15399169922</ele>
        <time>2011-11-06T10:01:44Z</time>
      </trkpt>
      <trkpt lat="45.93768" lon="4.86972">
        <ele>295.13198852539</ele>
        <time>2011-11-06T10:01:56Z</time>
      </trkpt>
      <trkpt lat="45.93785" lon="4.86892">
        <ele>296.69299316406</ele>
        <time>2011-11-06T10:02:10Z</time>
      </trkpt>
      <trkpt lat="45.93803" lon="4.86771">
        <ele>297.80599975586</ele>
        <time>2011-11-06T10:02:27Z</time>
      </trkpt>
      <trkpt lat="45.93824" lon="4.86625">
        <ele>297.43399047852</ele>
        <time>2011-11-06T10:02:43Z</time>
      </trkpt>
      <trkpt lat="45.93853" lon="4.86427">
        <ele>295.21701049805</ele>
        <time>2011-11-06T10:03:01Z</time>
      </trkpt>
      <trkpt lat="45.93874" lon="4.86276">
        <ele>294.94000244141</ele>
        <time>2011-11-06T10:03:18Z</time>
      </trkpt>
      <trkpt lat="45.93872" lon="4.86135">
        <ele>293.06399536133</ele>
        <time>2011-11-06T10:03:32Z</time>
      </trkpt>
      <trkpt lat="45.93858" lon="4.85943">
        <ele>290.1960144043</ele>
        <time>2011-11-06T10:03:51Z</time>
      </trkpt>
      <trkpt lat="45.93866" lon="4.85914">
        <ele>289.82598876953</ele>
        <time>2011-11-06T10:03:55Z</time>
      </trkpt>
      <trkpt lat="45.93893" lon="4.85924">
        <ele>289.7200012207</ele>
        <time>2011-11-06T10:04:00Z</time>
      </trkpt>
      <trkpt lat="45.93946" lon="4.85935">
        <ele>290.14300537109</ele>
        <time>2011-11-06T10:04:11Z</time>
      </trkpt>
      <trkpt lat="45.94029" lon="4.85929">
        <ele>289.11499023438</ele>
        <time>2011-11-06T10:04:27Z</time>
      </trkpt>
      <trkpt lat="45.94091" lon="4.85919">
        <ele>288.82000732422</ele>
        <time>2011-11-06T10:04:40Z</time>
      </trkpt>
      <trkpt lat="45.94147" lon="4.85919">
        <ele>288.98400878906</ele>
        <time>2011-11-06T10:04:52Z</time>
      </trkpt>
      <trkpt lat="45.94239" lon="4.85904">
        <ele>288.98199462891</ele>
        <time>2011-11-06T10:05:08Z</time>
      </trkpt>
      <trkpt lat="45.94349" lon="4.85887">
        <ele>285.79098510742</ele>
        <time>2011-11-06T10:05:26Z</time>
      </trkpt>
      <trkpt lat="45.94429" lon="4.85874">
        <ele>284.69500732422</ele>
        <time>2011-11-06T10:05:39Z</time>
      </trkpt>
      <trkpt lat="45.94503" lon="4.85883">
        <ele>285.36401367188</ele>
        <time>2011-11-06T10:05:53Z</time>
      </trkpt>
      <trkpt lat="45.94567" lon="4.85896">
        <ele>286.18499755859</ele>
        <time>2011-11-06T10:06:10Z</time>
      </trkpt>
      <trkpt lat="45.94635" lon="4.85905">
        <ele>286.83599853516</ele>
        <time>2011-11-06T10:06:26Z</time>
      </trkpt>
      <trkpt lat="45.94728" lon="4.85886">
        <ele>283.36599731445</ele>
        <time>2011-11-06T10:06:43Z</time>
      </trkpt>
      <trkpt lat="45.94825" lon="4.8588">
        <ele>281.98001098633</ele>
        <time>2011-11-06T10:07:01Z</time>
      </trkpt>
      <trkpt lat="45.94867" lon="4.85875">
        <ele>281.45001220703</ele>
        <time>2011-11-06T10:07:09Z</time>
      </trkpt>
      <trkpt lat="45.94954" lon="4.85872">
        <ele>280.0539855957</ele>
        <time>2011-11-06T10:07:26Z</time>
      </trkpt>
      <trkpt lat="45.95023" lon="4.85846">
        <ele>279.43399047852</ele>
        <time>2011-11-06T10:07:42Z</time>
      </trkpt>
      <trkpt lat="45.95018" lon="4.8579">
        <ele>279.73098754883</ele>
        <time>2011-11-06T10:07:55Z</time>
      </trkpt>
      <trkpt lat="45.95012" lon="4.85718">
        <ele>283.30801391602</ele>
        <time>2011-11-06T10:08:13Z</time>
      </trkpt>
      <trkpt lat="45.95008" lon="4.85656">
        <ele>287.98098754883</ele>
        <time>2011-11-06T10:08:30Z</time>
      </trkpt>
      <trkpt lat="45.95007" lon="4.85646">
        <ele>288.18200683594</ele>
        <time>2011-11-06T10:10:11Z</time>
      </trkpt>
      <trkpt lat="45.9501" lon="4.85629">
        <ele>288.39498901367</ele>
        <time>2011-11-06T10:10:45Z</time>
      </trkpt>
      <trkpt lat="45.95019" lon="4.85629">
        <ele>288.54800415039</ele>
        <time>2011-11-06T10:11:12Z</time>
      </trkpt>
      <trkpt lat="45.95052" lon="4.85627">
        <ele>290.31799316406</ele>
        <time>2011-11-06T10:11:25Z</time>
      </trkpt>
      <trkpt lat="45.95117" lon="4.85611">
        <ele>292.10000610352</ele>
        <time>2011-11-06T10:11:43Z</time>
      </trkpt>
      <trkpt lat="45.95168" lon="4.85584">
        <ele>290.39599609375</ele>
        <time>2011-11-06T10:11:56Z</time>
      </trkpt>
      <trkpt lat="45.95168" lon="4.85554">
        <ele>290.12399291992</ele>
        <time>2011-11-06T10:12:02Z</time>
      </trkpt>
      <trkpt lat="45.95152" lon="4.85498">
        <ele>289.80700683594</ele>
        <time>2011-11-06T10:12:11Z</time>
      </trkpt>
      <trkpt lat="45.95158" lon="4.85463">
        <ele>286.48599243164</ele>
        <time>2011-11-06T10:12:18Z</time>
      </trkpt>
      <trkpt lat="45.95212" lon="4.85439">
        <ele>286.14599609375</ele>
        <time>2011-11-06T10:12:33Z</time>
      </trkpt>
      <trkpt lat="45.95219" lon="4.85406">
        <ele>285.0119934082</ele>
        <time>2011-11-06T10:12:40Z</time>
      </trkpt>
      <trkpt lat="45.95244" lon="4.85373">
        <ele>282.13101196289</ele>
        <time>2011-11-06T10:12:50Z</time>
      </trkpt>
      <trkpt lat="45.95247" lon="4.8533">
        <ele>280.94500732422</ele>
        <time>2011-11-06T10:12:57Z</time>
      </trkpt>
      <trkpt lat="45.95263" lon="4.85318">
        <ele>279.74499511719</ele>
        <time>2011-11-06T10:13:01Z</time>
      </trkpt>
      <trkpt lat="45.95306" lon="4.85296">
        <ele>277.75</ele>
        <time>2011-11-06T10:13:14Z</time>
      </trkpt>
      <trkpt lat="45.95342" lon="4.85281">
        <ele>277.23599243164</ele>
        <time>2011-11-06T10:13:26Z</time>
      </trkpt>
      <trkpt lat="45.95385" lon="4.85254">
        <ele>277.35800170898</ele>
        <time>2011-11-06T10:13:38Z</time>
      </trkpt>
      <trkpt lat="45.95465" lon="4.85226">
        <ele>278.00698852539</ele>
        <time>2011-11-06T10:13:58Z</time>
      </trkpt>
      <trkpt lat="45.95524" lon="4.852">
        <ele>279.84399414062</ele>
        <time>2011-11-06T10:14:15Z</time>
      </trkpt>
      <trkpt lat="45.95539" lon="4.85159">
        <ele>279.74600219727</ele>
        <time>2011-11-06T10:14:24Z</time>
      </trkpt>
      <trkpt lat="45.95598" lon="4.8514">
        <ele>279.96600341797</ele>
        <time>2011-11-06T10:14:39Z</time>
      </trkpt>
      <trkpt lat="45.95618" lon="4.85104">
        <ele>279.07598876953</ele>
        <time>2011-11-06T10:14:47Z</time>
      </trkpt>
      <trkpt lat="45.95658" lon="4.85107">
        <ele>278.01400756836</ele>
        <time>2011-11-06T10:14:57Z</time>
      </trkpt>
      <trkpt lat="45.95704" lon="4.8508">
        <ele>277.27301025391</ele>
        <time>2011-11-06T10:15:10Z</time>
      </trkpt>
      <trkpt lat="45.95731" lon="4.85079">
        <ele>276.42001342773</ele>
        <time>2011-11-06T10:15:19Z</time>
      </trkpt>
      <trkpt lat="45.95746" lon="4.85033">
        <ele>277.04400634766</ele>
        <time>2011-11-06T10:15:31Z</time>
      </trkpt>
      <trkpt lat="45.95738" lon="4.84971">
        <ele>277.72900390625</ele>
        <time>2011-11-06T10:15:41Z</time>
      </trkpt>
      <trkpt lat="45.9576" lon="4.84903">
        <ele>277.45001220703</ele>
        <time>2011-11-06T10:15:52Z</time>
      </trkpt>
      <trkpt lat="45.95819" lon="4.84857">
        <ele>276.46099853516</ele>
        <time>2011-11-06T10:16:04Z</time>
      </trkpt>
      <trkpt lat="45.95842" lon="4.84841">
        <ele>276.72500610352</ele>
        <time>2011-11-06T10:16:10Z</time>
      </trkpt>
      <trkpt lat="45.95925" lon="4.84813">
        <ele>276.26800537109</ele>
        <time>2011-11-06T10:16:27Z</time>
      </trkpt>
      <trkpt lat="45.95979" lon="4.84802">
        <ele>276.40701293945</ele>
        <time>2011-11-06T10:16:39Z</time>
      </trkpt>
      <trkpt lat="45.96014" lon="4.848">
        <ele>276.83499145508</ele>
        <time>2011-11-06T10:16:47Z</time>
      </trkpt>
      <trkpt lat="45.96018" lon="4.84763">
        <ele>276.65301513672</ele>
        <time>2011-11-06T10:16:54Z</time>
      </trkpt>
      <trkpt lat="45.95996" lon="4.847">
        <ele>275.41198730469</ele>
        <time>2011-11-06T10:17:03Z</time>
      </trkpt>
      <trkpt lat="45.95998" lon="4.84655">
        <ele>272.55899047852</ele>
        <time>2011-11-06T10:17:11Z</time>
      </trkpt>
      <trkpt lat="45.96" lon="4.846">
        <ele>271.46499633789</ele>
        <time>2011-11-06T10:17:20Z</time>
      </trkpt>
      <trkpt lat="45.9603" lon="4.84468">
        <ele>272.96499633789</ele>
        <time>2011-11-06T10:17:41Z</time>
      </trkpt>
      <trkpt lat="45.96041" lon="4.84376">
        <ele>274.10598754883</ele>
        <time>2011-11-06T10:17:56Z</time>
      </trkpt>
      <trkpt lat="45.96054" lon="4.84244">
        <ele>273.34698486328</ele>
        <time>2011-11-06T10:18:13Z</time>
      </trkpt>
      <trkpt lat="45.96069" lon="4.8408">
        <ele>271.23999023438</ele>
        <time>2011-11-06T10:18:32Z</time>
      </trkpt>
      <trkpt lat="45.96093" lon="4.83979">
        <ele>267.83999633789</ele>
        <time>2011-11-06T10:18:43Z</time>
      </trkpt>
      <trkpt lat="45.96107" lon="4.83915">
        <ele>264.17199707031</ele>
        <time>2011-11-06T10:18:49Z</time>
      </trkpt>
      <trkpt lat="45.96121" lon="4.83814">
        <ele>257.98001098633</ele>
        <time>2011-11-06T10:18:58Z</time>
      </trkpt>
      <trkpt lat="45.96158" lon="4.83684">
        <ele>250.28999328613</ele>
        <time>2011-11-06T10:19:09Z</time>
      </trkpt>
      <trkpt lat="45.96166" lon="4.8364">
        <ele>247.12600708008</ele>
        <time>2011-11-06T10:19:14Z</time>
      </trkpt>
      <trkpt lat="45.9615" lon="4.8357">
        <ele>245.01300048828</ele>
        <time>2011-11-06T10:19:24Z</time>
      </trkpt>
      <trkpt lat="45.96124" lon="4.83451">
        <ele>243.33700561523</ele>
        <time>2011-11-06T10:19:37Z</time>
      </trkpt>
      <trkpt lat="45.96093" lon="4.8329">
        <ele>240.76800537109</ele>
        <time>2011-11-06T10:19:52Z</time>
      </trkpt>
      <trkpt lat="45.96088" lon="4.83133">
        <ele>239.39300537109</ele>
        <time>2011-11-06T10:20:08Z</time>
      </trkpt>
      <trkpt lat="45.96069" lon="4.83025">
        <ele>238.88000488281</ele>
        <time>2011-11-06T10:20:19Z</time>
      </trkpt>
      <trkpt lat="45.96096" lon="4.82868">
        <ele>237.89500427246</ele>
        <time>2011-11-06T10:20:35Z</time>
      </trkpt>
      <trkpt lat="45.96081" lon="4.82759">
        <ele>237.08700561523</ele>
        <time>2011-11-06T10:20:48Z</time>
      </trkpt>
      <trkpt lat="45.9603" lon="4.82628">
        <ele>236.69700622559</ele>
        <time>2011-11-06T10:21:05Z</time>
      </trkpt>
      <trkpt lat="45.96009" lon="4.82568">
        <ele>235.82699584961</ele>
        <time>2011-11-06T10:21:14Z</time>
      </trkpt>
      <trkpt lat="45.96006" lon="4.82514">
        <ele>235.47700500488</ele>
        <time>2011-11-06T10:21:22Z</time>
      </trkpt>
      <trkpt lat="45.96012" lon="4.82455">
        <ele>234.95399475098</ele>
        <time>2011-11-06T10:21:34Z</time>
      </trkpt>
      <trkpt lat="45.96017" lon="4.82433">
        <ele>234.79899597168</ele>
        <time>2011-11-06T10:21:38Z</time>
      </trkpt>
      <trkpt lat="45.96027" lon="4.82362">
        <ele>234.28399658203</ele>
        <time>2011-11-06T10:21:51Z</time>
      </trkpt>
      <trkpt lat="45.96007" lon="4.82237">
        <ele>233.4109954834</ele>
        <time>2011-11-06T10:22:11Z</time>
      </trkpt>
      <trkpt lat="45.96009" lon="4.82206">
        <ele>233.18600463867</ele>
        <time>2011-11-06T10:22:18Z</time>
      </trkpt>
      <trkpt lat="45.96008" lon="4.82154">
        <ele>232.61799621582</ele>
        <time>2011-11-06T10:22:28Z</time>
      </trkpt>
      <trkpt lat="45.96021" lon="4.82133">
        <ele>232.2140045166</ele>
        <time>2011-11-06T10:22:37Z</time>
      </trkpt>
      <trkpt lat="45.96012" lon="4.82139">
        <ele>231.73899841309</ele>
        <time>2011-11-06T10:22:45Z</time>
      </trkpt>
      <trkpt lat="45.96004" lon="4.82138">
        <ele>232.4940032959</ele>
        <time>2011-11-06T10:22:59Z</time>
      </trkpt>
      <trkpt lat="45.96" lon="4.82134">
        <ele>232.69400024414</ele>
        <time>2011-11-06T10:23:07Z</time>
      </trkpt>
      <trkpt lat="45.95992" lon="4.82133">
        <ele>232.72999572754</ele>
        <time>2011-11-06T10:23:20Z</time>
      </trkpt>
      <trkpt lat="45.9599" lon="4.82119">
        <ele>233.07800292969</ele>
        <time>2011-11-06T10:23:31Z</time>
      </trkpt>
      <trkpt lat="45.95984" lon="4.82116">
        <ele>233.33999633789</ele>
        <time>2011-11-06T10:23:41Z</time>
      </trkpt>
      <trkpt lat="45.95987" lon="4.82134">
        <ele>233.6369934082</ele>
        <time>2011-11-06T10:23:49Z</time>
      </trkpt>
      <trkpt lat="45.95988" lon="4.82156">
        <ele>233.24699401856</ele>
        <time>2011-11-06T10:23:59Z</time>
      </trkpt>
      <trkpt lat="45.95996" lon="4.82178">
        <ele>233.54899597168</ele>
        <time>2011-11-06T10:24:06Z</time>
      </trkpt>
      <trkpt lat="45.96" lon="4.82212">
        <ele>233.63000488281</ele>
        <time>2011-11-06T10:24:17Z</time>
      </trkpt>
      <trkpt lat="45.96004" lon="4.82237">
        <ele>233.68800354004</ele>
        <time>2011-11-06T10:24:23Z</time>
      </trkpt>
      <trkpt lat="45.96022" lon="4.82321">
        <ele>234.46099853516</ele>
        <time>2011-11-06T10:24:37Z</time>
      </trkpt>
      <trkpt lat="45.96018" lon="4.82354">
        <ele>235.07299804688</ele>
        <time>2011-11-06T10:24:46Z</time>
      </trkpt>
      <trkpt lat="45.95999" lon="4.82352">
        <ele>235.24800109863</ele>
        <time>2011-11-06T10:24:51Z</time>
      </trkpt>
      <trkpt lat="45.95921" lon="4.82363">
        <ele>239.38900756836</ele>
        <time>2011-11-06T10:25:10Z</time>
      </trkpt>
      <trkpt lat="45.95855" lon="4.82368">
        <ele>244.88900756836</ele>
        <time>2011-11-06T10:25:29Z</time>
      </trkpt>
      <trkpt lat="45.95802" lon="4.82358">
        <ele>250.16700744629</ele>
        <time>2011-11-06T10:25:46Z</time>
      </trkpt>
      <trkpt lat="45.95759" lon="4.82322">
        <ele>252.75900268555</ele>
        <time>2011-11-06T10:26:01Z</time>
      </trkpt>
      <trkpt lat="45.95713" lon="4.82275">
        <ele>254.82299804688</ele>
        <time>2011-11-06T10:26:16Z</time>
      </trkpt>
      <trkpt lat="45.95679" lon="4.82239">
        <ele>255.73100280762</ele>
        <time>2011-11-06T10:26:26Z</time>
      </trkpt>
      <trkpt lat="45.95639" lon="4.82221">
        <ele>256.37600708008</ele>
        <time>2011-11-06T10:26:36Z</time>
      </trkpt>
      <trkpt lat="45.95606" lon="4.82224">
        <ele>257.11499023438</ele>
        <time>2011-11-06T10:26:45Z</time>
      </trkpt>
      <trkpt lat="45.95599" lon="4.82245">
        <ele>257.91500854492</ele>
        <time>2011-11-06T10:26:54Z</time>
      </trkpt>
      <trkpt lat="45.9561" lon="4.82283">
        <ele>258.91799926758</ele>
        <time>2011-11-06T10:27:03Z</time>
      </trkpt>
      <trkpt lat="45.95626" lon="4.82328">
        <ele>259.67199707031</ele>
        <time>2011-11-06T10:27:15Z</time>
      </trkpt>
      <trkpt lat="45.95613" lon="4.82285">
        <ele>259.72299194336</ele>
        <time>2011-11-06T10:27:25Z</time>
      </trkpt>
      <trkpt lat="45.95595" lon="4.82225">
        <ele>258.59100341797</ele>
        <time>2011-11-06T10:27:35Z</time>
      </trkpt>
      <trkpt lat="45.95543" lon="4.82183">
        <ele>259.37799072266</ele>
        <time>2011-11-06T10:27:48Z</time>
      </trkpt>
      <trkpt lat="45.95517" lon="4.82188">
        <ele>260.1669921875</ele>
        <time>2011-11-06T10:27:54Z</time>
      </trkpt>
      <trkpt lat="45.95488" lon="4.82228">
        <ele>260.83599853516</ele>
        <time>2011-11-06T10:28:02Z</time>
      </trkpt>
      <trkpt lat="45.95454" lon="4.82317">
        <ele>260.72799682617</ele>
        <time>2011-11-06T10:28:15Z</time>
      </trkpt>
      <trkpt lat="45.95425" lon="4.82323">
        <ele>261.14300537109</ele>
        <time>2011-11-06T10:28:21Z</time>
      </trkpt>
      <trkpt lat="45.95412" lon="4.82257">
        <ele>261.88400268555</ele>
        <time>2011-11-06T10:28:29Z</time>
      </trkpt>
      <trkpt lat="45.95392" lon="4.82215">
        <ele>262.11898803711</ele>
        <time>2011-11-06T10:28:35Z</time>
      </trkpt>
      <trkpt lat="45.95366" lon="4.82185">
        <ele>261.92401123047</ele>
        <time>2011-11-06T10:28:41Z</time>
      </trkpt>
      <trkpt lat="45.95351" lon="4.82187">
        <ele>261.67401123047</ele>
        <time>2011-11-06T10:28:48Z</time>
      </trkpt>
      <trkpt lat="45.95356" lon="4.82191">
        <ele>261.19100952148</ele>
        <time>2011-11-06T10:29:08Z</time>
      </trkpt>
      <trkpt lat="45.95355" lon="4.82186">
        <ele>261.53298950195</ele>
        <time>2011-11-06T10:29:25Z</time>
      </trkpt>
      <trkpt lat="45.95353" lon="4.82188">
        <ele>262.31799316406</ele>
        <time>2011-11-06T10:31:38Z</time>
      </trkpt>
      <trkpt lat="45.95355" lon="4.82188">
        <ele>262.47799682617</ele>
        <time>2011-11-06T10:31:50Z</time>
      </trkpt>
      <trkpt lat="45.95352" lon="4.82193">
        <ele>262.42498779297</ele>
        <time>2011-11-06T10:32:21Z</time>
      </trkpt>
      <trkpt lat="45.95339" lon="4.82186">
        <ele>262.94299316406</ele>
        <time>2011-11-06T10:34:09Z</time>
      </trkpt>
      <trkpt lat="45.9494" lon="4.82336">
        <ele>266.16000366211</ele>
        <time>2011-11-06T11:05:41Z</time>
      </trkpt>
      <trkpt lat="45.94826" lon="4.82341">
        <ele>266.55999755859</ele>
        <time>2011-11-06T11:05:57Z</time>
      </trkpt>
      <trkpt lat="45.94701" lon="4.8234">
        <ele>266.54901123047</ele>
        <time>2011-11-06T11:06:13Z</time>
      </trkpt>
      <trkpt lat="45.94571" lon="4.82299">
        <ele>266.52301025391</ele>
        <time>2011-11-06T11:06:30Z</time>
      </trkpt>
      <trkpt lat="45.94436" lon="4.82227">
        <ele>265.85800170898</ele>
        <time>2011-11-06T11:06:49Z</time>
      </trkpt>
      <trkpt lat="45.94328" lon="4.82206">
        <ele>265.06698608398</ele>
        <time>2011-11-06T11:07:05Z</time>
      </trkpt>
      <trkpt lat="45.94284" lon="4.82201">
        <ele>264.45901489258</ele>
        <time>2011-11-06T11:07:15Z</time>
      </trkpt>
      <trkpt lat="45.94261" lon="4.82199">
        <ele>264.69000244141</ele>
        <time>2011-11-06T11:07:31Z</time>
      </trkpt>
      <trkpt lat="45.94196" lon="4.8221">
        <ele>264.48400878906</ele>
        <time>2011-11-06T11:07:43Z</time>
      </trkpt>
      <trkpt lat="45.94161" lon="4.82217">
        <ele>264.35699462891</ele>
        <time>2011-11-06T11:07:52Z</time>
      </trkpt>
      <trkpt lat="45.94109" lon="4.82225">
        <ele>264.78500366211</ele>
        <time>2011-11-06T11:08:08Z</time>
      </trkpt>
      <trkpt lat="45.94104" lon="4.82226">
        <ele>264.68399047852</ele>
        <time>2011-11-06T11:12:50Z</time>
      </trkpt>
      <trkpt lat="45.94054" lon="4.82236">
        <ele>264.94400024414</ele>
        <time>2011-11-06T11:13:02Z</time>
      </trkpt>
      <trkpt lat="45.93995" lon="4.82215">
        <ele>262.00399780273</ele>
        <time>2011-11-06T11:13:10Z</time>
      </trkpt>
      <trkpt lat="45.93943" lon="4.82195">
        <ele>257.43899536133</ele>
        <time>2011-11-06T11:13:15Z</time>
      </trkpt>
      <trkpt lat="45.93866" lon="4.82194">
        <ele>252.03199768066</ele>
        <time>2011-11-06T11:13:21Z</time>
      </trkpt>
      <trkpt lat="45.93771" lon="4.82179">
        <ele>240.50500488281</ele>
        <time>2011-11-06T11:13:29Z</time>
      </trkpt>
      <trkpt lat="45.93745" lon="4.82165">
        <ele>231.04699707031</ele>
        <time>2011-11-06T11:13:35Z</time>
      </trkpt>
      <trkpt lat="45.93733" lon="4.82174">
        <ele>228.31799316406</ele>
        <time>2011-11-06T11:13:40Z</time>
      </trkpt>
      <trkpt lat="45.93681" lon="4.82254">
        <ele>226.83000183106</ele>
        <time>2011-11-06T11:13:51Z</time>
      </trkpt>
      <trkpt lat="45.93647" lon="4.82296">
        <ele>225.31300354004</ele>
        <time>2011-11-06T11:13:58Z</time>
      </trkpt>
      <trkpt lat="45.9362" lon="4.82333">
        <ele>223.23899841309</ele>
        <time>2011-11-06T11:14:06Z</time>
      </trkpt>
      <trkpt lat="45.936" lon="4.82344">
        <ele>223.20500183106</ele>
        <time>2011-11-06T11:14:11Z</time>
      </trkpt>
      <trkpt lat="45.93573" lon="4.82327">
        <ele>222.55400085449</ele>
        <time>2011-11-06T11:14:15Z</time>
      </trkpt>
      <trkpt lat="45.93521" lon="4.82333">
        <ele>216.83700561523</ele>
        <time>2011-11-06T11:14:22Z</time>
      </trkpt>
      <trkpt lat="45.93506" lon="4.82364">
        <ele>211.19000244141</ele>
        <time>2011-11-06T11:14:28Z</time>
      </trkpt>
      <trkpt lat="45.93499" lon="4.82335">
        <ele>208.9049987793</ele>
        <time>2011-11-06T11:14:33Z</time>
      </trkpt>
      <trkpt lat="45.93492" lon="4.82286">
        <ele>208.08700561523</ele>
        <time>2011-11-06T11:14:39Z</time>
      </trkpt>
      <trkpt lat="45.93469" lon="4.82275">
        <ele>207.52400207519</ele>
        <time>2011-11-06T11:14:43Z</time>
      </trkpt>
      <trkpt lat="45.93393" lon="4.82291">
        <ele>204.17399597168</ele>
        <time>2011-11-06T11:14:54Z</time>
      </trkpt>
      <trkpt lat="45.9337" lon="4.82316">
        <ele>203.68299865723</ele>
        <time>2011-11-06T11:14:59Z</time>
      </trkpt>
      <trkpt lat="45.93288" lon="4.82368">
        <ele>206.15400695801</ele>
        <time>2011-11-06T11:15:14Z</time>
      </trkpt>
      <trkpt lat="45.93222" lon="4.82407">
        <ele>209.71600341797</ele>
        <time>2011-11-06T11:15:27Z</time>
      </trkpt>
      <trkpt lat="45.93145" lon="4.82459">
        <ele>210.25900268555</ele>
        <time>2011-11-06T11:15:42Z</time>
      </trkpt>
      <trkpt lat="45.93104" lon="4.82512">
        <ele>210.48300170898</ele>
        <time>2011-11-06T11:15:51Z</time>
      </trkpt>
      <trkpt lat="45.9304" lon="4.82555">
        <ele>209.52699279785</ele>
        <time>2011-11-06T11:16:02Z</time>
      </trkpt>
      <trkpt lat="45.92973" lon="4.82553">
        <ele>207.44099426269</ele>
        <time>2011-11-06T11:16:12Z</time>
      </trkpt>
      <trkpt lat="45.92856" lon="4.82557">
        <ele>202.23300170898</ele>
        <time>2011-11-06T11:16:25Z</time>
      </trkpt>
      <trkpt lat="45.92759" lon="4.826">
        <ele>197.71699523926</ele>
        <time>2011-11-06T11:16:36Z</time>
      </trkpt>
      <trkpt lat="45.92693" lon="4.82609">
        <ele>193.93699645996</ele>
        <time>2011-11-06T11:16:44Z</time>
      </trkpt>
      <trkpt lat="45.92656" lon="4.82611">
        <ele>191.25700378418</ele>
        <time>2011-11-06T11:16:51Z</time>
      </trkpt>
      <trkpt lat="45.92551" lon="4.82597">
        <ele>192.29600524902</ele>
        <time>2011-11-06T11:17:05Z</time>
      </trkpt>
      <trkpt lat="45.92442" lon="4.82592">
        <ele>192.25199890137</ele>
        <time>2011-11-06T11:17:19Z</time>
      </trkpt>
      <trkpt lat="45.92335" lon="4.8261">
        <ele>192.8869934082</ele>
        <time>2011-11-06T11:17:35Z</time>
      </trkpt>
      <trkpt lat="45.92245" lon="4.82613">
        <ele>193.28300476074</ele>
        <time>2011-11-06T11:17:50Z</time>
      </trkpt>
      <trkpt lat="45.92224" lon="4.82604">
        <ele>192.41600036621</ele>
        <time>2011-11-06T11:17:56Z</time>
      </trkpt>
      <trkpt lat="45.92158" lon="4.82588">
        <ele>190.92100524902</ele>
        <time>2011-11-06T11:18:05Z</time>
      </trkpt>
      <trkpt lat="45.92095" lon="4.8259">
        <ele>189.59800720215</ele>
        <time>2011-11-06T11:18:13Z</time>
      </trkpt>
      <trkpt lat="45.92028" lon="4.82597">
        <ele>190.77400207519</ele>
        <time>2011-11-06T11:18:24Z</time>
      </trkpt>
      <trkpt lat="45.91956" lon="4.82607">
        <ele>193.47700500488</ele>
        <time>2011-11-06T11:18:37Z</time>
      </trkpt>
      <trkpt lat="45.91879" lon="4.82608">
        <ele>193.85499572754</ele>
        <time>2011-11-06T11:18:50Z</time>
      </trkpt>
      <trkpt lat="45.91809" lon="4.82595">
        <ele>194.02900695801</ele>
        <time>2011-11-06T11:19:03Z</time>
      </trkpt>
      <trkpt lat="45.91755" lon="4.82585">
        <ele>194.04800415039</ele>
        <time>2011-11-06T11:19:13Z</time>
      </trkpt>
      <trkpt lat="45.9173" lon="4.82579">
        <ele>193.14199829102</ele>
        <time>2011-11-06T11:19:19Z</time>
      </trkpt>
      <trkpt lat="45.91721" lon="4.8258">
        <ele>192.18800354004</ele>
        <time>2011-11-06T11:19:26Z</time>
      </trkpt>
      <trkpt lat="45.9169" lon="4.82596">
        <ele>193.49200439453</ele>
        <time>2011-11-06T11:19:33Z</time>
      </trkpt>
      <trkpt lat="45.9165" lon="4.826">
        <ele>195.98599243164</ele>
        <time>2011-11-06T11:19:44Z</time>
      </trkpt>
      <trkpt lat="45.9161" lon="4.82585">
        <ele>198.25</ele>
        <time>2011-11-06T11:19:54Z</time>
      </trkpt>
      <trkpt lat="45.91572" lon="4.82544">
        <ele>200.02200317383</ele>
        <time>2011-11-06T11:20:04Z</time>
      </trkpt>
      <trkpt lat="45.91544" lon="4.82514">
        <ele>199.9109954834</ele>
        <time>2011-11-06T11:20:11Z</time>
      </trkpt>
      <trkpt lat="45.91516" lon="4.82472">
        <ele>198.89700317383</ele>
        <time>2011-11-06T11:20:18Z</time>
      </trkpt>
      <trkpt lat="45.91446" lon="4.82454">
        <ele>199.82499694824</ele>
        <time>2011-11-06T11:20:30Z</time>
      </trkpt>
      <trkpt lat="45.91401" lon="4.82451">
        <ele>201.45100402832</ele>
        <time>2011-11-06T11:20:39Z</time>
      </trkpt>
      <trkpt lat="45.91372" lon="4.82415">
        <ele>202.95599365234</ele>
        <time>2011-11-06T11:20:50Z</time>
      </trkpt>
      <trkpt lat="45.91354" lon="4.82369">
        <ele>201.2859954834</ele>
        <time>2011-11-06T11:20:57Z</time>
      </trkpt>
      <trkpt lat="45.91335" lon="4.82349">
        <ele>199.05799865723</ele>
        <time>2011-11-06T11:21:04Z</time>
      </trkpt>
      <trkpt lat="45.91298" lon="4.82339">
        <ele>199.98500061035</ele>
        <time>2011-11-06T11:21:11Z</time>
      </trkpt>
      <trkpt lat="45.91233" lon="4.82293">
        <ele>199.10899353027</ele>
        <time>2011-11-06T11:21:20Z</time>
      </trkpt>
      <trkpt lat="45.91187" lon="4.82282">
        <ele>197.13800048828</ele>
        <time>2011-11-06T11:21:25Z</time>
      </trkpt>
      <trkpt lat="45.9108" lon="4.82288">
        <ele>196.85200500488</ele>
        <time>2011-11-06T11:21:39Z</time>
      </trkpt>
      <trkpt lat="45.9097" lon="4.82295">
        <ele>199.01800537109</ele>
        <time>2011-11-06T11:21:56Z</time>
      </trkpt>
      <trkpt lat="45.90873" lon="4.82327">
        <ele>199.31799316406</ele>
        <time>2011-11-06T11:22:12Z</time>
      </trkpt>
      <trkpt lat="45.9079" lon="4.82359">
        <ele>200.21699523926</ele>
        <time>2011-11-06T11:22:27Z</time>
      </trkpt>
      <trkpt lat="45.90689" lon="4.82402">
        <ele>200.45399475098</ele>
        <time>2011-11-06T11:22:43Z</time>
      </trkpt>
      <trkpt lat="45.90628" lon="4.82439">
        <ele>198.75799560547</ele>
        <time>2011-11-06T11:22:53Z</time>
      </trkpt>
      <trkpt lat="45.90577" lon="4.82475">
        <ele>197.375</ele>
        <time>2011-11-06T11:23:02Z</time>
      </trkpt>
      <trkpt lat="45.90453" lon="4.82562">
        <ele>196.03799438477</ele>
        <time>2011-11-06T11:23:20Z</time>
      </trkpt>
      <trkpt lat="45.90353" lon="4.82631">
        <ele>193.94299316406</ele>
        <time>2011-11-06T11:23:35Z</time>
      </trkpt>
      <trkpt lat="45.90262" lon="4.82638">
        <ele>193.20899963379</ele>
        <time>2011-11-06T11:23:47Z</time>
      </trkpt>
      <trkpt lat="45.90166" lon="4.82677">
        <ele>191.85600280762</ele>
        <time>2011-11-06T11:24:01Z</time>
      </trkpt>
      <trkpt lat="45.89996" lon="4.8276">
        <ele>189.04699707031</ele>
        <time>2011-11-06T11:24:26Z</time>
      </trkpt>
      <trkpt lat="45.89788" lon="4.82852">
        <ele>186.34599304199</ele>
        <time>2011-11-06T11:24:55Z</time>
      </trkpt>
      <trkpt lat="45.89737" lon="4.82878">
        <ele>185.27299499512</ele>
        <time>2011-11-06T11:25:05Z</time>
      </trkpt>
      <trkpt lat="45.89467" lon="4.82883">
        <ele>182.08099365234</ele>
        <time>2011-11-06T11:25:39Z</time>
      </trkpt>
      <trkpt lat="45.89258" lon="4.82895">
        <ele>180.66200256348</ele>
        <time>2011-11-06T11:26:08Z</time>
      </trkpt>
      <trkpt lat="45.89038" lon="4.82947">
        <ele>179.22399902344</ele>
        <time>2011-11-06T11:26:39Z</time>
      </trkpt>
      <trkpt lat="45.88821" lon="4.83">
        <ele>177.27499389648</ele>
        <time>2011-11-06T11:27:09Z</time>
      </trkpt>
      <trkpt lat="45.88765" lon="4.82991">
        <ele>174.38600158691</ele>
        <time>2011-11-06T11:27:25Z</time>
      </trkpt>
      <trkpt lat="45.88672" lon="4.83109">
        <ele>174.19999694824</ele>
        <time>2011-11-06T11:27:45Z</time>
      </trkpt>
      <trkpt lat="45.88531" lon="4.83279">
        <ele>174.28399658203</ele>
        <time>2011-11-06T11:28:12Z</time>
      </trkpt>
      <trkpt lat="45.88358" lon="4.83368">
        <ele>174.00799560547</ele>
        <time>2011-11-06T11:28:40Z</time>
      </trkpt>
      <trkpt lat="45.88161" lon="4.83452">
        <ele>173.97099304199</ele>
        <time>2011-11-06T11:29:11Z</time>
      </trkpt>
      <trkpt lat="45.88074" lon="4.83525">
        <ele>172.94099426269</ele>
        <time>2011-11-06T11:29:28Z</time>
      </trkpt>
      <trkpt lat="45.87953" lon="4.83649">
        <ele>173.00799560547</ele>
        <time>2011-11-06T11:29:54Z</time>
      </trkpt>
      <trkpt lat="45.87788" lon="4.83811">
        <ele>173.27600097656</ele>
        <time>2011-11-06T11:30:25Z</time>
      </trkpt>
      <trkpt lat="45.877" lon="4.83833">
        <ele>174.50300598144</ele>
        <time>2011-11-06T11:30:41Z</time>
      </trkpt>
      <trkpt lat="45.87525" lon="4.83877">
        <ele>174.17399597168</ele>
        <time>2011-11-06T11:31:08Z</time>
      </trkpt>
      <trkpt lat="45.87327" lon="4.83928">
        <ele>173.81100463867</ele>
        <time>2011-11-06T11:31:37Z</time>
      </trkpt>
      <trkpt lat="45.87182" lon="4.83962">
        <ele>173.32800292969</ele>
        <time>2011-11-06T11:31:59Z</time>
      </trkpt>
      <trkpt lat="45.87082" lon="4.83975">
        <ele>173.00900268555</ele>
        <time>2011-11-06T11:32:21Z</time>
      </trkpt>
      <trkpt lat="45.86856" lon="4.83968">
        <ele>173.05299377441</ele>
        <time>2011-11-06T11:32:53Z</time>
      </trkpt>
      <trkpt lat="45.86699" lon="4.83955">
        <ele>173.00199890137</ele>
        <time>2011-11-06T11:33:15Z</time>
      </trkpt>
      <trkpt lat="45.86494" lon="4.83988">
        <ele>173.22300720215</ele>
        <time>2011-11-06T11:33:44Z</time>
      </trkpt>
      <trkpt lat="45.86284" lon="4.84048">
        <ele>173.58099365234</ele>
        <time>2011-11-06T11:34:19Z</time>
      </trkpt>
      <trkpt lat="45.86052" lon="4.84105">
        <ele>173.17599487305</ele>
        <time>2011-11-06T11:34:57Z</time>
      </trkpt>
      <trkpt lat="45.85828" lon="4.84105">
        <ele>172.9880065918</ele>
        <time>2011-11-06T11:35:36Z</time>
      </trkpt>
      <trkpt lat="45.85622" lon="4.84005">
        <ele>173.40100097656</ele>
        <time>2011-11-06T11:36:14Z</time>
      </trkpt>
      <trkpt lat="45.85434" lon="4.83909">
        <ele>172.42199707031</ele>
        <time>2011-11-06T11:36:47Z</time>
      </trkpt>
      <trkpt lat="45.85233" lon="4.83825">
        <ele>173.65199279785</ele>
        <time>2011-11-06T11:37:19Z</time>
      </trkpt>
      <trkpt lat="45.85025" lon="4.83763">
        <ele>174.05499267578</ele>
        <time>2011-11-06T11:37:50Z</time>
      </trkpt>
      <trkpt lat="45.84928" lon="4.83719">
        <ele>173.65100097656</ele>
        <time>2011-11-06T11:38:07Z</time>
      </trkpt>
      <trkpt lat="45.84669" lon="4.83585">
        <ele>173.36399841309</ele>
        <time>2011-11-06T11:38:45Z</time>
      </trkpt>
      <trkpt lat="45.84501" lon="4.83499">
        <ele>174.15699768066</ele>
        <time>2011-11-06T11:39:12Z</time>
      </trkpt>
      <trkpt lat="45.84353" lon="4.83447">
        <ele>175.6369934082</ele>
        <time>2011-11-06T11:39:38Z</time>
      </trkpt>
      <trkpt lat="45.84127" lon="4.8337">
        <ele>175.57899475098</ele>
        <time>2011-11-06T11:40:12Z</time>
      </trkpt>
      <trkpt lat="45.83941" lon="4.83406">
        <ele>176.21299743652</ele>
        <time>2011-11-06T11:40:40Z</time>
      </trkpt>
      <trkpt lat="45.83728" lon="4.83608">
        <ele>175.93499755859</ele>
        <time>2011-11-06T11:41:17Z</time>
      </trkpt>
      <trkpt lat="45.83538" lon="4.83922">
        <ele>176.16900634766</ele>
        <time>2011-11-06T11:41:59Z</time>
      </trkpt>
      <trkpt lat="45.83416" lon="4.84245">
        <ele>176.44000244141</ele>
        <time>2011-11-06T11:42:37Z</time>
      </trkpt>
      <trkpt lat="45.83325" lon="4.84563">
        <ele>175.79899597168</ele>
        <time>2011-11-06T11:43:12Z</time>
      </trkpt>
      <trkpt lat="45.83257" lon="4.84807">
        <ele>174.43400573731</ele>
        <time>2011-11-06T11:43:40Z</time>
      </trkpt>
      <trkpt lat="45.83224" lon="4.84907">
        <ele>176.14799499512</ele>
        <time>2011-11-06T11:44:01Z</time>
      </trkpt>
      <trkpt lat="45.83248" lon="4.84932">
        <ele>175.46200561523</ele>
        <time>2011-11-06T11:44:11Z</time>
      </trkpt>
      <trkpt lat="45.83305" lon="4.84982">
        <ele>175.4700012207</ele>
        <time>2011-11-06T11:44:27Z</time>
      </trkpt>
      <trkpt lat="45.83332" lon="4.85028">
        <ele>177.33099365234</ele>
        <time>2011-11-06T11:44:41Z</time>
      </trkpt>
      <trkpt lat="45.83251" lon="4.85271">
        <ele>181.90199279785</ele>
        <time>2011-11-06T11:45:20Z</time>
      </trkpt>
      <trkpt lat="45.83202" lon="4.85455">
        <ele>184.3690032959</ele>
        <time>2011-11-06T11:45:51Z</time>
      </trkpt>
      <trkpt lat="45.83162" lon="4.85612">
        <ele>192.39500427246</ele>
        <time>2011-11-06T11:46:25Z</time>
      </trkpt>
      <trkpt lat="45.83187" lon="4.85761">
        <ele>192.66700744629</ele>
        <time>2011-11-06T11:46:47Z</time>
      </trkpt>
      <trkpt lat="45.83225" lon="4.85995">
        <ele>194.98399353027</ele>
        <time>2011-11-06T11:47:18Z</time>
      </trkpt>
      <trkpt lat="45.83235" lon="4.86225">
        <ele>197.9700012207</ele>
        <time>2011-11-06T11:47:52Z</time>
      </trkpt>
      <trkpt lat="45.83223" lon="4.86411">
        <ele>202.54200744629</ele>
        <time>2011-11-06T11:48:20Z</time>
      </trkpt>
      <trkpt lat="45.83172" lon="4.86536">
        <ele>206.07899475098</ele>
        <time>2011-11-06T11:48:45Z</time>
      </trkpt>
      <trkpt lat="45.83098" lon="4.86507">
        <ele>209.86000061035</ele>
        <time>2011-11-06T11:49:09Z</time>
      </trkpt>
      <trkpt lat="45.83089" lon="4.86496">
        <ele>210.64599609375</ele>
        <time>2011-11-06T11:50:04Z</time>
      </trkpt>
      <trkpt lat="45.82995" lon="4.86473">
        <ele>214.78999328613</ele>
        <time>2011-11-06T11:50:31Z</time>
      </trkpt>
      <trkpt lat="45.82864" lon="4.86463">
        <ele>220.47500610352</ele>
        <time>2011-11-06T11:51:05Z</time>
      </trkpt>
      <trkpt lat="45.82748" lon="4.86483">
        <ele>225.29699707031</ele>
        <time>2011-11-06T11:51:35Z</time>
      </trkpt>
      <trkpt lat="45.8263" lon="4.86509">
        <ele>230.48300170898</ele>
        <time>2011-11-06T11:52:08Z</time>
      </trkpt>
      <trkpt lat="45.82487" lon="4.86558">
        <ele>236.61199951172</ele>
        <time>2011-11-06T11:52:48Z</time>
      </trkpt>
      <trkpt lat="45.82347" lon="4.86577">
        <ele>243.13900756836</ele>
        <time>2011-11-06T11:53:27Z</time>
      </trkpt>
      <trkpt lat="45.82251" lon="4.86555">
        <ele>249.77799987793</ele>
        <time>2011-11-06T11:54:00Z</time>
      </trkpt>
      <trkpt lat="45.82117" lon="4.86529">
        <ele>253.29600524902</ele>
        <time>2011-11-06T11:54:34Z</time>
      </trkpt>
      <trkpt lat="45.81969" lon="4.86532">
        <ele>260.14898681641</ele>
        <time>2011-11-06T11:55:11Z</time>
      </trkpt>
      <trkpt lat="45.81809" lon="4.86547">
        <ele>264.54501342773</ele>
        <time>2011-11-06T11:55:48Z</time>
      </trkpt>
      <trkpt lat="45.81702" lon="4.86579">
        <ele>266.89898681641</ele>
        <time>2011-11-06T11:56:14Z</time>
      </trkpt>
      <trkpt lat="45.81525" lon="4.86624">
        <ele>269.41000366211</ele>
        <time>2011-11-06T11:56:49Z</time>
      </trkpt>
      <trkpt lat="45.81494" lon="4.86657">
        <ele>271.45599365234</ele>
        <time>2011-11-06T11:57:04Z</time>
      </trkpt>
      <trkpt lat="45.81493" lon="4.86672">
        <ele>271.55899047852</ele>
        <time>2011-11-06T11:57:15Z</time>
      </trkpt>
      <trkpt lat="45.81384" lon="4.86512">
        <ele>269.19100952148</ele>
        <time>2011-11-06T11:57:41Z</time>
      </trkpt>
      <trkpt lat="45.81264" lon="4.86328">
        <ele>269.4469909668</ele>
        <time>2011-11-06T11:58:10Z</time>
      </trkpt>
      <trkpt lat="45.81057" lon="4.86101">
        <ele>267.40200805664</ele>
        <time>2011-11-06T11:58:48Z</time>
      </trkpt>
      <trkpt lat="45.8088" lon="4.85962">
        <ele>265.5719909668</ele>
        <time>2011-11-06T11:59:18Z</time>
      </trkpt>
      <trkpt lat="45.80697" lon="4.85818">
        <ele>264.40100097656</ele>
        <time>2011-11-06T11:59:49Z</time>
      </trkpt>
      <trkpt lat="45.80504" lon="4.85669">
        <ele>261.82400512695</ele>
        <time>2011-11-06T12:00:21Z</time>
      </trkpt>
      <trkpt lat="45.80329" lon="4.85539">
        <ele>261.39401245117</ele>
        <time>2011-11-06T12:00:49Z</time>
      </trkpt>
      <trkpt lat="45.80111" lon="4.8536">
        <ele>259.77301025391</ele>
        <time>2011-11-06T12:01:23Z</time>
      </trkpt>
      <trkpt lat="45.80074" lon="4.85329">
        <ele>258.51800537109</ele>
        <time>2011-11-06T12:01:35Z</time>
      </trkpt>
      <trkpt lat="45.7995" lon="4.85183">
        <ele>258.86499023438</ele>
        <time>2011-11-06T12:02:04Z</time>
      </trkpt>
      <trkpt lat="45.79777" lon="4.84955">
        <ele>259.24798583984</ele>
        <time>2011-11-06T12:02:39Z</time>
      </trkpt>
      <trkpt lat="45.79688" lon="4.84834">
        <ele>258.69500732422</ele>
        <time>2011-11-06T12:02:59Z</time>
      </trkpt>
      <trkpt lat="45.79651" lon="4.84896">
        <ele>260.37899780273</ele>
        <time>2011-11-06T12:03:18Z</time>
      </trkpt>
      <trkpt lat="45.79731" lon="4.85033">
        <ele>253.64799499512</ele>
        <time>2011-11-06T12:03:40Z</time>
      </trkpt>
      <trkpt lat="45.79778" lon="4.85118">
        <ele>248.64100646973</ele>
        <time>2011-11-06T12:03:56Z</time>
      </trkpt>
      <trkpt lat="45.79726" lon="4.85302">
        <ele>245.93600463867</ele>
        <time>2011-11-06T12:04:17Z</time>
      </trkpt>
      <trkpt lat="45.79742" lon="4.85543">
        <ele>239.72599792481</ele>
        <time>2011-11-06T12:04:35Z</time>
      </trkpt>
      <trkpt lat="45.79647" lon="4.85775">
        <ele>229.25100708008</ele>
        <time>2011-11-06T12:04:52Z</time>
      </trkpt>
      <trkpt lat="45.79532" lon="4.85867">
        <ele>221.24899291992</ele>
        <time>2011-11-06T12:05:03Z</time>
      </trkpt>
      <trkpt lat="45.79343" lon="4.85995">
        <ele>207.19799804688</ele>
        <time>2011-11-06T12:05:21Z</time>
      </trkpt>
      <trkpt lat="45.79145" lon="4.86055">
        <ele>190.41400146484</ele>
        <time>2011-11-06T12:05:41Z</time>
      </trkpt>
      <trkpt lat="45.79076" lon="4.86026">
        <ele>187.29299926758</ele>
        <time>2011-11-06T12:05:56Z</time>
      </trkpt>
      <trkpt lat="45.78917" lon="4.86043">
        <ele>192.72900390625</ele>
        <time>2011-11-06T12:06:31Z</time>
      </trkpt>
      <trkpt lat="45.78833" lon="4.86029">
        <ele>189.99499511719</ele>
        <time>2011-11-06T12:06:48Z</time>
      </trkpt>
      <trkpt lat="45.78712" lon="4.86027">
        <ele>186.66900634766</ele>
        <time>2011-11-06T12:07:10Z</time>
      </trkpt>
      <trkpt lat="45.78516" lon="4.85997">
        <ele>182.85699462891</ele>
        <time>2011-11-06T12:07:38Z</time>
      </trkpt>
      <trkpt lat="45.78466" lon="4.85927">
        <ele>178.41700744629</ele>
        <time>2011-11-06T12:07:52Z</time>
      </trkpt>
      <trkpt lat="45.7838" lon="4.85884">
        <ele>176.30400085449</ele>
        <time>2011-11-06T12:08:08Z</time>
      </trkpt>
      <trkpt lat="45.78267" lon="4.85817">
        <ele>173.58399963379</ele>
        <time>2011-11-06T12:08:26Z</time>
      </trkpt>
      <trkpt lat="45.78204" lon="4.85847">
        <ele>173.76100158691</ele>
        <time>2011-11-06T12:08:36Z</time>
      </trkpt>
      <trkpt lat="45.78013" lon="4.85868">
        <ele>173.35699462891</ele>
        <time>2011-11-06T12:09:06Z</time>
      </trkpt>
      <trkpt lat="45.77868" lon="4.85856">
        <ele>173.62199401856</ele>
        <time>2011-11-06T12:09:30Z</time>
      </trkpt>
      <trkpt lat="45.77726" lon="4.8582">
        <ele>173.60400390625</ele>
        <time>2011-11-06T12:09:51Z</time>
      </trkpt>
      <trkpt lat="45.7753" lon="4.85821">
        <ele>173.39399719238</ele>
        <time>2011-11-06T12:10:20Z</time>
      </trkpt>
      <trkpt lat="45.77419" lon="4.85766">
        <ele>173.55499267578</ele>
        <time>2011-11-06T12:10:38Z</time>
      </trkpt>
      <trkpt lat="45.77374" lon="4.8564">
        <ele>173.53399658203</ele>
        <time>2011-11-06T12:10:54Z</time>
      </trkpt>
      <trkpt lat="45.77295" lon="4.8566">
        <ele>173.82200622559</ele>
        <time>2011-11-06T12:11:09Z</time>
      </trkpt>
      <trkpt lat="45.77266" lon="4.85646">
        <ele>173.36999511719</ele>
        <time>2011-11-06T12:11:25Z</time>
      </trkpt>
      <trkpt lat="45.77158" lon="4.85677">
        <ele>174.38499450684</ele>
        <time>2011-11-06T12:11:48Z</time>
      </trkpt>
      <trkpt lat="45.77068" lon="4.85667">
        <ele>174.89100646973</ele>
        <time>2011-11-06T12:12:07Z</time>
      </trkpt>
      <trkpt lat="45.7704" lon="4.85653">
        <ele>174.91700744629</ele>
        <time>2011-11-06T12:12:15Z</time>
      </trkpt>
      <trkpt lat="45.76975" lon="4.85725">
        <ele>174.95399475098</ele>
        <time>2011-11-06T12:12:37Z</time>
      </trkpt>
      <trkpt lat="45.76854" lon="4.85844">
        <ele>175.82400512695</ele>
        <time>2011-11-06T12:13:04Z</time>
      </trkpt>
      <trkpt lat="45.76774" lon="4.85919">
        <ele>175.66200256348</ele>
        <time>2011-11-06T12:13:20Z</time>
      </trkpt>
      <trkpt lat="45.76625" lon="4.85926">
        <ele>175.62800598144</ele>
        <time>2011-11-06T12:13:44Z</time>
      </trkpt>
      <trkpt lat="45.76619" lon="4.86014">
        <ele>174.50199890137</ele>
        <time>2011-11-06T12:14:01Z</time>
      </trkpt>
      <trkpt lat="45.7664" lon="4.8611">
        <ele>173.89599609375</ele>
        <time>2011-11-06T12:14:16Z</time>
      </trkpt>
      <trkpt lat="45.76627" lon="4.86169">
        <ele>174.38000488281</ele>
        <time>2011-11-06T12:14:29Z</time>
      </trkpt>
      <trkpt lat="45.76604" lon="4.86212">
        <ele>174.52600097656</ele>
        <time>2011-11-06T12:14:39Z</time>
      </trkpt>
      <trkpt lat="45.76481" lon="4.86208">
        <ele>174.72200012207</ele>
        <time>2011-11-06T12:14:58Z</time>
      </trkpt>
      <trkpt lat="45.76341" lon="4.86213">
        <ele>174.46499633789</ele>
        <time>2011-11-06T12:15:22Z</time>
      </trkpt>
      <trkpt lat="45.76256" lon="4.8621">
        <ele>175.02000427246</ele>
        <time>2011-11-06T12:15:43Z</time>
      </trkpt>
      <trkpt lat="45.7614" lon="4.86188">
        <ele>174.94400024414</ele>
        <time>2011-11-06T12:16:01Z</time>
      </trkpt>
      <trkpt lat="45.76046" lon="4.86208">
        <ele>174.79499816894</ele>
        <time>2011-11-06T12:16:18Z</time>
      </trkpt>
      <trkpt lat="45.75919" lon="4.86201">
        <ele>175.41000366211</ele>
        <time>2011-11-06T12:16:42Z</time>
      </trkpt>
      <trkpt lat="45.75867" lon="4.86196">
        <ele>175.29600524902</ele>
        <time>2011-11-06T12:16:58Z</time>
      </trkpt>
      <trkpt lat="45.75742" lon="4.86177">
        <ele>175.85400390625</ele>
        <time>2011-11-06T12:17:18Z</time>
      </trkpt>
      <trkpt lat="45.757" lon="4.86193">
        <ele>175.39799499512</ele>
        <time>2011-11-06T12:17:28Z</time>
      </trkpt>
      <trkpt lat="45.7564" lon="4.86232">
        <ele>176.54499816894</ele>
        <time>2011-11-06T12:17:44Z</time>
      </trkpt>
      <trkpt lat="45.75515" lon="4.86225">
        <ele>176.42700195312</ele>
        <time>2011-11-06T12:18:06Z</time>
      </trkpt>
      <trkpt lat="45.75401" lon="4.86388">
        <ele>176.28900146484</ele>
        <time>2011-11-06T12:18:36Z</time>
      </trkpt>
      <trkpt lat="45.75332" lon="4.86588">
        <ele>177.48199462891</ele>
        <time>2011-11-06T12:19:04Z</time>
      </trkpt>
      <trkpt lat="45.75306" lon="4.86834">
        <ele>177.70799255371</ele>
        <time>2011-11-06T12:19:35Z</time>
      </trkpt>
      <trkpt lat="45.75279" lon="4.86873">
        <ele>177.49499511719</ele>
        <time>2011-11-06T12:19:47Z</time>
      </trkpt>
      <trkpt lat="45.75193" lon="4.86865">
        <ele>177.82699584961</ele>
        <time>2011-11-06T12:20:09Z</time>
      </trkpt>
      <trkpt lat="45.74994" lon="4.86847">
        <ele>178.93200683594</ele>
        <time>2011-11-06T12:20:41Z</time>
      </trkpt>
      <trkpt lat="45.74815" lon="4.86773">
        <ele>178.96600341797</ele>
        <time>2011-11-06T12:21:11Z</time>
      </trkpt>
      <trkpt lat="45.74808" lon="4.86696">
        <ele>177.78799438477</ele>
        <time>2011-11-06T12:21:27Z</time>
      </trkpt>
      <trkpt lat="45.74819" lon="4.86631">
        <ele>177.93400573731</ele>
        <time>2011-11-06T12:21:42Z</time>
      </trkpt>
    </trkseg>
  </trk>
</gpx>